PWSweather.com
Personal Weather Stations
Station Observations
KNEOMA130
Stonybrook South, Omaha, NE 68138

Stonybrook SouthOmaha, NE 68138

Lat: 41.190485, Lon: -96.13102900000001

Elevation: 1142

Station Type: Davis VP2

http://chappelleweather.com

Latest ConditionsUpdated 7:18:06 AM CDT Monday, May 27, 2019
Currently Today's Max Today's Min Today's Average
Temperature 63.0°F17.2°C 66.9°F19.4°C 63.0°F17.2°C 64.9°F18.3°C
Dew Point 60.6°F15.9°C 65.4°F18.6°C 60.2°F15.7°C 63.0°F17.2°C
Winds 14.0 mph SSW22.5 kmh SSW 22.0 mph -35.4 kmh - - 5.3 mph 8.5 kmh
Wind Gusts 27.0 mph43.5 kmh 33.0 mph53.1 kmh - -
Humidity 92% 95% 90% 94%
Pressure 29.68 in1005.1 mb 29.96 in1014.6 mb 29.66 in1004.4 mb -
Precipitation - 0.64 in16.3 mm - -
Hour Temp Dew Point Humidity Winds Wind Gusts Pressure Precip Precip Rate Daily Precip Total
07:18 AM 63.0°F17.2°C 60.6°F15.9°C 92% 14.0 mph SSW22.5 kmh SSW 27.0 mph43.5 kmh 29.68 in1005.1 mb 0.00 in0.0 mm 0.00 in0.0 mm 0.64 in16.3 mm
07:17 AM 63.0°F17.2°C 60.3°F15.7°C 91% 8.0 mph SW12.9 kmh SW 27.0 mph43.5 kmh 29.68 in1005.1 mb 0.00 in0.0 mm 0.00 in0.0 mm 0.64 in16.3 mm
07:16 AM 63.0°F17.2°C 60.3°F15.7°C 91% 12.0 mph S19.3 kmh S 27.0 mph43.5 kmh 29.68 in1005.1 mb 0.00 in0.0 mm 0.00 in0.0 mm 0.64 in16.3 mm
07:15 AM 63.0°F17.2°C 60.3°F15.7°C 91% 6.0 mph WSW9.7 kmh WSW 27.0 mph43.5 kmh 29.68 in1005.1 mb 0.00 in0.0 mm 0.00 in0.0 mm 0.64 in16.3 mm
07:14 AM 63.1°F17.3°C 60.4°F15.8°C 91% 16.0 mph SSW25.7 kmh SSW 27.0 mph43.5 kmh 29.68 in1005.1 mb 0.00 in0.0 mm 0.00 in0.0 mm 0.63 in16.0 mm
07:13 AM 63.1°F17.3°C 60.4°F15.8°C 91% 9.0 mph SSW14.5 kmh SSW 27.0 mph43.5 kmh 29.67 in1004.7 mb 0.00 in0.0 mm 0.00 in0.0 mm 0.63 in16.0 mm
07:12 AM 63.1°F17.3°C 60.4°F15.8°C 91% 14.0 mph S22.5 kmh S 27.0 mph43.5 kmh 29.67 in1004.7 mb 0.00 in0.0 mm 0.00 in0.0 mm 0.63 in16.0 mm
07:11 AM 63.2°F17.3°C 60.2°F15.7°C 90% 14.0 mph S22.5 kmh S 27.0 mph43.5 kmh 29.67 in1004.7 mb 0.00 in0.0 mm 0.00 in0.0 mm 0.63 in16.0 mm
07:10 AM 63.3°F17.4°C 60.3°F15.7°C 90% 17.0 mph SSW27.4 kmh SSW 27.0 mph43.5 kmh 29.67 in1004.7 mb 0.00 in0.0 mm 0.00 in0.0 mm 0.63 in16.0 mm
07:09 AM 63.4°F17.4°C 60.4°F15.8°C 90% 9.0 mph SW14.5 kmh SW 27.0 mph43.5 kmh 29.66 in1004.4 mb 0.00 in0.0 mm 0.00 in0.0 mm 0.63 in16.0 mm
07:08 AM 63.4°F17.4°C 60.4°F15.8°C 90% 19.0 mph SW30.6 kmh SW 27.0 mph43.5 kmh 29.66 in1004.4 mb 0.00 in0.0 mm 0.00 in0.0 mm 0.63 in16.0 mm
07:07 AM 63.5°F17.5°C 60.5°F15.8°C 90% 3.0 mph S4.8 kmh S 27.0 mph43.5 kmh 29.66 in1004.4 mb 0.00 in0.0 mm 0.00 in0.0 mm 0.63 in16.0 mm
07:06 AM 63.6°F17.6°C 60.6°F15.9°C 90% 9.0 mph S14.5 kmh S 27.0 mph43.5 kmh 29.67 in1004.7 mb 0.00 in0.0 mm 0.00 in0.0 mm 0.63 in16.0 mm
07:05 AM 63.7°F17.6°C 60.7°F15.9°C 90% 14.0 mph SSE22.5 kmh SSE 27.0 mph43.5 kmh 29.68 in1005.1 mb 0.00 in0.0 mm 0.00 in0.0 mm 0.63 in16.0 mm
07:04 AM 63.8°F17.7°C 60.8°F16.0°C 90% 7.0 mph SW11.3 kmh SW 27.0 mph43.5 kmh 29.68 in1005.1 mb 0.00 in0.0 mm 0.00 in0.0 mm 0.63 in16.0 mm
07:03 AM 63.9°F17.7°C 60.9°F16.1°C 90% 15.0 mph S24.1 kmh S 27.0 mph43.5 kmh 29.68 in1005.1 mb 0.00 in0.0 mm 0.00 in0.0 mm 0.63 in16.0 mm
07:02 AM 64.0°F17.8°C 61.0°F16.1°C 90% 8.0 mph S12.9 kmh S 27.0 mph43.5 kmh 29.67 in1004.7 mb 0.00 in0.0 mm 0.00 in0.0 mm 0.63 in16.0 mm
07:01 AM 64.0°F17.8°C 61.0°F16.1°C 90% 7.0 mph SSW11.3 kmh SSW 33.0 mph53.1 kmh 29.68 in1005.1 mb 0.00 in0.0 mm 0.00 in0.0 mm 0.63 in16.0 mm
07:00 AM 64.0°F17.8°C 61.0°F16.1°C 90% 12.0 mph S19.3 kmh S 33.0 mph53.1 kmh 29.68 in1005.1 mb 0.00 in0.0 mm 0.00 in0.0 mm 0.63 in16.0 mm
06:59 AM 64.0°F17.8°C 61.0°F16.1°C 90% 22.0 mph SSW35.4 kmh SSW 33.0 mph53.1 kmh 29.68 in1005.1 mb 0.00 in0.0 mm 0.00 in0.0 mm 0.63 in16.0 mm
06:58 AM 64.0°F17.8°C 61.0°F16.1°C 90% 12.0 mph SE19.3 kmh SE 33.0 mph53.1 kmh 29.69 in1005.4 mb 0.00 in0.0 mm 0.00 in0.0 mm 0.63 in16.0 mm
06:57 AM 64.0°F17.8°C 61.0°F16.1°C 90% 11.0 mph S17.7 kmh S 33.0 mph53.1 kmh 29.68 in1005.1 mb 0.00 in0.0 mm 0.00 in0.0 mm 0.63 in16.0 mm
06:56 AM 64.0°F17.8°C 61.0°F16.1°C 90% 9.0 mph WSW14.5 kmh WSW 33.0 mph53.1 kmh 29.68 in1005.1 mb 0.00 in0.0 mm 0.00 in0.0 mm 0.63 in16.0 mm
06:55 AM 64.0°F17.8°C 61.3°F16.3°C 91% 12.0 mph S19.3 kmh S 33.0 mph53.1 kmh 29.68 in1005.1 mb 0.00 in0.0 mm 0.00 in0.0 mm 0.63 in16.0 mm
06:54 AM 63.9°F17.7°C 61.2°F16.2°C 91% 10.0 mph SSW16.1 kmh SSW 33.0 mph53.1 kmh 29.68 in1005.1 mb 0.00 in0.0 mm 0.00 in0.0 mm 0.63 in16.0 mm
06:53 AM 63.8°F17.7°C 61.1°F16.2°C 91% 10.0 mph SW16.1 kmh SW 33.0 mph53.1 kmh 29.68 in1005.1 mb 0.00 in0.0 mm 0.00 in0.0 mm 0.63 in16.0 mm
06:52 AM 63.8°F17.7°C 61.1°F16.2°C 91% 21.0 mph S33.8 kmh S 33.0 mph53.1 kmh 29.68 in1005.1 mb 0.00 in0.0 mm 0.00 in0.0 mm 0.63 in16.0 mm
06:51 AM 63.7°F17.6°C 61.3°F16.3°C 92% 19.0 mph S30.6 kmh S 20.0 mph32.2 kmh 29.68 in1005.1 mb 0.00 in0.0 mm 0.00 in0.0 mm 0.63 in16.0 mm
06:50 AM 63.7°F17.6°C 61.3°F16.3°C 92% 7.0 mph S11.3 kmh S 20.0 mph32.2 kmh 29.68 in1005.1 mb 0.00 in0.0 mm 0.00 in0.0 mm 0.63 in16.0 mm
06:49 AM 63.7°F17.6°C 61.3°F16.3°C 92% 14.0 mph SW22.5 kmh SW 18.0 mph29.0 kmh 29.68 in1005.1 mb 0.00 in0.0 mm 0.00 in0.0 mm 0.63 in16.0 mm
06:48 AM 63.7°F17.6°C 61.3°F16.3°C 92% 8.0 mph SW12.9 kmh SW 18.0 mph29.0 kmh 29.68 in1005.1 mb 0.00 in0.0 mm 0.00 in0.0 mm 0.63 in16.0 mm
06:47 AM 63.7°F17.6°C 61.3°F16.3°C 92% 6.0 mph S9.7 kmh S 17.0 mph27.4 kmh 29.68 in1005.1 mb 0.00 in0.0 mm 0.00 in0.0 mm 0.63 in16.0 mm
06:46 AM 63.6°F17.6°C 61.2°F16.2°C 92% 13.0 mph S20.9 kmh S 17.0 mph27.4 kmh 29.68 in1005.1 mb 0.00 in0.0 mm 0.00 in0.0 mm 0.63 in16.0 mm
06:45 AM 63.7°F17.6°C 61.3°F16.3°C 92% 8.0 mph SE12.9 kmh SE 18.0 mph29.0 kmh 29.67 in1004.7 mb 0.00 in0.0 mm 0.00 in0.0 mm 0.63 in16.0 mm
06:44 AM 63.7°F17.6°C 61.3°F16.3°C 92% 14.0 mph SSW22.5 kmh SSW 18.0 mph29.0 kmh 29.68 in1005.1 mb 0.00 in0.0 mm 0.00 in0.0 mm 0.63 in16.0 mm
06:43 AM 63.7°F17.6°C 61.3°F16.3°C 92% 5.0 mph SE8.0 kmh SE 18.0 mph29.0 kmh 29.68 in1005.1 mb 0.00 in0.0 mm 0.00 in0.0 mm 0.63 in16.0 mm
06:42 AM 63.7°F17.6°C 61.3°F16.3°C 92% 7.0 mph SSE11.3 kmh SSE 18.0 mph29.0 kmh 29.68 in1005.1 mb 0.00 in0.0 mm 0.00 in0.0 mm 0.63 in16.0 mm
06:41 AM 63.7°F17.6°C 61.3°F16.3°C 92% 4.0 mph SSE6.4 kmh SSE 18.0 mph29.0 kmh 29.68 in1005.1 mb 0.00 in0.0 mm 0.00 in0.0 mm 0.63 in16.0 mm
06:40 AM 63.6°F17.6°C 61.2°F16.2°C 92% 2.0 mph SSW3.2 kmh SSW 19.0 mph30.6 kmh 29.68 in1005.1 mb 0.00 in0.0 mm 0.00 in0.0 mm 0.63 in16.0 mm
06:39 AM 63.6°F17.6°C 61.2°F16.2°C 92% 6.0 mph W9.7 kmh W 19.0 mph30.6 kmh 29.68 in1005.1 mb 0.00 in0.0 mm 0.00 in0.0 mm 0.63 in16.0 mm
06:38 AM 63.6°F17.6°C 61.2°F16.2°C 92% 6.0 mph S9.7 kmh S 19.0 mph30.6 kmh 29.68 in1005.1 mb 0.00 in0.0 mm 0.00 in0.0 mm 0.63 in16.0 mm
06:37 AM 63.6°F17.6°C 61.2°F16.2°C 92% 5.0 mph SSW8.0 kmh SSW 19.0 mph30.6 kmh 29.67 in1004.7 mb 0.00 in0.0 mm 0.00 in0.0 mm 0.63 in16.0 mm
06:36 AM 63.6°F17.6°C 61.2°F16.2°C 92% 5.0 mph S8.0 kmh S 19.0 mph30.6 kmh 29.67 in1004.7 mb 0.00 in0.0 mm 0.00 in0.0 mm 0.63 in16.0 mm
06:35 AM 63.5°F17.5°C 61.1°F16.2°C 92% 11.0 mph SSW17.7 kmh SSW 19.0 mph30.6 kmh 29.68 in1005.1 mb 0.00 in0.0 mm 0.00 in0.0 mm 0.63 in16.0 mm
06:34 AM 63.5°F17.5°C 61.1°F16.2°C 92% 8.0 mph S12.9 kmh S 19.0 mph30.6 kmh 29.68 in1005.1 mb 0.00 in0.0 mm 0.00 in0.0 mm 0.63 in16.0 mm
06:33 AM 63.5°F17.5°C 61.1°F16.2°C 92% 7.0 mph SSE11.3 kmh SSE 19.0 mph30.6 kmh 29.68 in1005.1 mb 0.00 in0.0 mm 0.00 in0.0 mm 0.63 in16.0 mm
06:32 AM 63.5°F17.5°C 61.1°F16.2°C 92% 10.0 mph S16.1 kmh S 19.0 mph30.6 kmh 29.67 in1004.7 mb 0.00 in0.0 mm 0.00 in0.0 mm 0.63 in16.0 mm
06:31 AM 63.5°F17.5°C 61.1°F16.2°C 92% 9.0 mph S14.5 kmh S 19.0 mph30.6 kmh 29.67 in1004.7 mb 0.00 in0.0 mm 0.00 in0.0 mm 0.63 in16.0 mm
06:30 AM 63.5°F17.5°C 61.1°F16.2°C 92% 4.0 mph S6.4 kmh S 18.0 mph29.0 kmh 29.67 in1004.7 mb 0.00 in0.0 mm 0.00 in0.0 mm 0.63 in16.0 mm
06:29 AM 63.5°F17.5°C 61.1°F16.2°C 92% 16.0 mph SSW25.7 kmh SSW 17.0 mph27.4 kmh 29.67 in1004.7 mb 0.00 in0.0 mm 0.00 in0.0 mm 0.63 in16.0 mm
06:28 AM 63.6°F17.6°C 61.2°F16.2°C 92% 8.0 mph SSW12.9 kmh SSW 15.0 mph24.1 kmh 29.67 in1004.7 mb 0.00 in0.0 mm 0.00 in0.0 mm 0.63 in16.0 mm
06:27 AM 63.6°F17.6°C 61.2°F16.2°C 92% 6.0 mph SW9.7 kmh SW 15.0 mph24.1 kmh 29.67 in1004.7 mb 0.00 in0.0 mm 0.00 in0.0 mm 0.63 in16.0 mm
06:26 AM 63.6°F17.6°C 61.2°F16.2°C 92% 12.0 mph SSW19.3 kmh SSW 15.0 mph24.1 kmh 29.67 in1004.7 mb 0.00 in0.0 mm 0.00 in0.0 mm 0.63 in16.0 mm
06:25 AM 63.6°F17.6°C 61.2°F16.2°C 92% 8.0 mph SE12.9 kmh SE 15.0 mph24.1 kmh 29.67 in1004.7 mb 0.00 in0.0 mm 0.00 in0.0 mm 0.63 in16.0 mm
06:24 AM 63.6°F17.6°C 61.2°F16.2°C 92% 8.0 mph SSW12.9 kmh SSW 15.0 mph24.1 kmh 29.66 in1004.4 mb 0.00 in0.0 mm 0.00 in0.0 mm 0.63 in16.0 mm
06:23 AM 63.7°F17.6°C 61.3°F16.3°C 92% 3.0 mph S4.8 kmh S 14.0 mph22.5 kmh 29.66 in1004.4 mb 0.00 in0.0 mm 0.00 in0.0 mm 0.63 in16.0 mm
06:22 AM 63.7°F17.6°C 61.3°F16.3°C 92% 2.0 mph SSW3.2 kmh SSW 14.0 mph22.5 kmh 29.66 in1004.4 mb 0.00 in0.0 mm 0.00 in0.0 mm 0.63 in16.0 mm
06:21 AM 63.7°F17.6°C 61.3°F16.3°C 92% 6.0 mph S9.7 kmh S 16.0 mph25.7 kmh 29.66 in1004.4 mb 0.00 in0.0 mm 0.00 in0.0 mm 0.63 in16.0 mm
06:20 AM 63.7°F17.6°C 61.6°F16.4°C 93% 12.0 mph S19.3 kmh S 16.0 mph25.7 kmh 29.66 in1004.4 mb 0.00 in0.0 mm 0.00 in0.0 mm 0.63 in16.0 mm
06:19 AM 63.7°F17.6°C 61.6°F16.4°C 93% 3.0 mph S4.8 kmh S 16.0 mph25.7 kmh 29.66 in1004.4 mb 0.00 in0.0 mm 0.00 in0.0 mm 0.63 in16.0 mm
06:18 AM 63.7°F17.6°C 61.6°F16.4°C 93% 3.0 mph S4.8 kmh S 16.0 mph25.7 kmh 29.66 in1004.4 mb 0.00 in0.0 mm 0.00 in0.0 mm 0.63 in16.0 mm
06:17 AM 63.8°F17.7°C 61.7°F16.5°C 93% 10.0 mph SSW16.1 kmh SSW 16.0 mph25.7 kmh 29.66 in1004.4 mb 0.00 in0.0 mm 0.00 in0.0 mm 0.63 in16.0 mm
06:16 AM 63.8°F17.7°C 61.7°F16.5°C 93% 4.0 mph SSE6.4 kmh SSE 16.0 mph25.7 kmh 29.66 in1004.4 mb 0.00 in0.0 mm 0.00 in0.0 mm 0.63 in16.0 mm
06:15 AM 63.8°F17.7°C 61.7°F16.5°C 93% 5.0 mph S8.0 kmh S 16.0 mph25.7 kmh 29.66 in1004.4 mb 0.00 in0.0 mm 0.00 in0.0 mm 0.63 in16.0 mm
06:14 AM 63.8°F17.7°C 61.7°F16.5°C 93% 12.0 mph S19.3 kmh S 16.0 mph25.7 kmh 29.66 in1004.4 mb 0.00 in0.0 mm 0.00 in0.0 mm 0.63 in16.0 mm
06:13 AM 63.8°F17.7°C 61.7°F16.5°C 93% 1.0 mph WSW1.6 kmh WSW 16.0 mph25.7 kmh 29.66 in1004.4 mb 0.00 in0.0 mm 0.00 in0.0 mm 0.63 in16.0 mm
06:12 AM 63.9°F17.7°C 61.8°F16.6°C 93% 10.0 mph E16.1 kmh E 16.0 mph25.7 kmh 29.66 in1004.4 mb 0.00 in0.0 mm 0.00 in0.0 mm 0.63 in16.0 mm
06:11 AM 63.9°F17.7°C 61.8°F16.6°C 93% 8.0 mph S12.9 kmh S 16.0 mph25.7 kmh 29.66 in1004.4 mb 0.00 in0.0 mm 0.00 in0.0 mm 0.63 in16.0 mm
06:10 AM 63.9°F17.7°C 61.8°F16.6°C 93% 5.0 mph SW8.0 kmh SW 16.0 mph25.7 kmh 29.66 in1004.4 mb 0.00 in0.0 mm 0.00 in0.0 mm 0.63 in16.0 mm
06:09 AM 64.0°F17.8°C 61.9°F16.6°C 93% 4.0 mph SSW6.4 kmh SSW 16.0 mph25.7 kmh 29.66 in1004.4 mb 0.00 in0.0 mm 0.00 in0.0 mm 0.63 in16.0 mm
06:08 AM 64.0°F17.8°C 61.9°F16.6°C 93% 8.0 mph ESE12.9 kmh ESE 15.0 mph24.1 kmh 29.67 in1004.7 mb 0.00 in0.0 mm 0.00 in0.0 mm 0.63 in16.0 mm
06:07 AM 64.0°F17.8°C 61.9°F16.6°C 93% 6.0 mph S9.7 kmh S 15.0 mph24.1 kmh 29.67 in1004.7 mb 0.00 in0.0 mm 0.00 in0.0 mm 0.63 in16.0 mm
06:06 AM 64.0°F17.8°C 61.9°F16.6°C 93% 4.0 mph SSW6.4 kmh SSW 15.0 mph24.1 kmh 29.67 in1004.7 mb 0.00 in0.0 mm 0.00 in0.0 mm 0.63 in16.0 mm
06:05 AM 64.0°F17.8°C 61.9°F16.6°C 93% 10.0 mph S16.1 kmh S 15.0 mph24.1 kmh 29.67 in1004.7 mb 0.00 in0.0 mm 0.00 in0.0 mm 0.63 in16.0 mm
06:04 AM 64.0°F17.8°C 61.9°F16.6°C 93% 11.0 mph SSE17.7 kmh SSE 15.0 mph24.1 kmh 29.67 in1004.7 mb 0.00 in0.0 mm 0.00 in0.0 mm 0.63 in16.0 mm
06:03 AM 64.0°F17.8°C 61.9°F16.6°C 93% 5.0 mph SE8.0 kmh SE 15.0 mph24.1 kmh 29.67 in1004.7 mb 0.00 in0.0 mm 0.00 in0.0 mm 0.63 in16.0 mm
06:02 AM 64.1°F17.8°C 62.0°F16.7°C 93% 4.0 mph SW6.4 kmh SW 15.0 mph24.1 kmh 29.67 in1004.7 mb 0.00 in0.0 mm 0.00 in0.0 mm 0.63 in16.0 mm
06:01 AM 64.1°F17.8°C 62.0°F16.7°C 93% 3.0 mph S4.8 kmh S 15.0 mph24.1 kmh 29.66 in1004.4 mb 0.00 in0.0 mm 0.00 in0.0 mm 0.63 in16.0 mm
06:00 AM 64.1°F17.8°C 62.0°F16.7°C 93% 9.0 mph SSW14.5 kmh SSW 15.0 mph24.1 kmh 29.66 in1004.4 mb 0.00 in0.0 mm 0.00 in0.0 mm 0.63 in16.0 mm
05:59 AM 64.1°F17.8°C 62.0°F16.7°C 93% 4.0 mph S6.4 kmh S 16.0 mph25.7 kmh 29.67 in1004.7 mb 0.00 in0.0 mm 0.00 in0.0 mm 0.63 in16.0 mm
05:58 AM 64.1°F17.8°C 62.0°F16.7°C 93% 11.0 mph SSE17.7 kmh SSE 16.0 mph25.7 kmh 29.67 in1004.7 mb 0.00 in0.0 mm 0.00 in0.0 mm 0.63 in16.0 mm
05:57 AM 64.1°F17.8°C 62.0°F16.7°C 93% 10.0 mph S16.1 kmh S 16.0 mph25.7 kmh 29.67 in1004.7 mb 0.00 in0.0 mm 0.00 in0.0 mm 0.63 in16.0 mm
05:56 AM 64.1°F17.8°C 62.0°F16.7°C 93% 7.0 mph SE11.3 kmh SE 16.0 mph25.7 kmh 29.67 in1004.7 mb 0.00 in0.0 mm 0.00 in0.0 mm 0.63 in16.0 mm
05:55 AM 64.1°F17.8°C 62.0°F16.7°C 93% 10.0 mph SSE16.1 kmh SSE 16.0 mph25.7 kmh 29.67 in1004.7 mb 0.00 in0.0 mm 0.00 in0.0 mm 0.63 in16.0 mm
05:54 AM 64.2°F17.9°C 62.1°F16.7°C 93% 7.0 mph S11.3 kmh S 16.0 mph25.7 kmh 29.66 in1004.4 mb 0.00 in0.0 mm 0.00 in0.0 mm 0.63 in16.0 mm
05:53 AM 64.2°F17.9°C 62.1°F16.7°C 93% 3.0 mph SE4.8 kmh SE 17.0 mph27.4 kmh 29.66 in1004.4 mb 0.00 in0.0 mm 0.00 in0.0 mm 0.63 in16.0 mm
05:52 AM 64.2°F17.9°C 62.1°F16.7°C 93% 9.0 mph SSW14.5 kmh SSW 17.0 mph27.4 kmh 29.67 in1004.7 mb 0.00 in0.0 mm 0.00 in0.0 mm 0.63 in16.0 mm
05:51 AM 64.2°F17.9°C 62.1°F16.7°C 93% 1.0 mph WSW1.6 kmh WSW 17.0 mph27.4 kmh 29.67 in1004.7 mb 0.00 in0.0 mm 0.00 in0.0 mm 0.63 in16.0 mm
05:50 AM 64.2°F17.9°C 62.1°F16.7°C 93% 7.0 mph SW11.3 kmh SW 17.0 mph27.4 kmh 29.66 in1004.4 mb 0.00 in0.0 mm 0.00 in0.0 mm 0.63 in16.0 mm
05:49 AM 64.3°F17.9°C 62.2°F16.8°C 93% 6.0 mph SSE9.7 kmh SSE 17.0 mph27.4 kmh 29.67 in1004.7 mb 0.00 in0.0 mm 0.00 in0.0 mm 0.63 in16.0 mm
05:48 AM 64.3°F17.9°C 62.2°F16.8°C 93% 9.0 mph WSW14.5 kmh WSW 17.0 mph27.4 kmh 29.66 in1004.4 mb 0.00 in0.0 mm 0.00 in0.0 mm 0.63 in16.0 mm
05:47 AM 64.3°F17.9°C 62.2°F16.8°C 93% 5.0 mph SSE8.0 kmh SSE 17.0 mph27.4 kmh 29.67 in1004.7 mb 0.00 in0.0 mm 0.00 in0.0 mm 0.63 in16.0 mm
05:46 AM 64.3°F17.9°C 62.2°F16.8°C 93% 2.0 mph S3.2 kmh S 17.0 mph27.4 kmh 29.66 in1004.4 mb 0.00 in0.0 mm 0.00 in0.0 mm 0.63 in16.0 mm
05:45 AM 64.3°F17.9°C 62.2°F16.8°C 93% 8.0 mph SSE12.9 kmh SSE 17.0 mph27.4 kmh 29.66 in1004.4 mb 0.00 in0.0 mm 0.00 in0.0 mm 0.63 in16.0 mm
05:44 AM 64.4°F18.0°C 62.3°F16.8°C 93% 9.0 mph SSW14.5 kmh SSW 17.0 mph27.4 kmh 29.67 in1004.7 mb 0.00 in0.0 mm 0.00 in0.0 mm 0.63 in16.0 mm
05:43 AM 64.4°F18.0°C 62.3°F16.8°C 93% 3.0 mph S4.8 kmh S 15.0 mph24.1 kmh 29.67 in1004.7 mb 0.00 in0.0 mm 0.00 in0.0 mm 0.63 in16.0 mm
05:42 AM 64.4°F18.0°C 62.3°F16.8°C 93% 2.0 mph SSE3.2 kmh SSE 15.0 mph24.1 kmh 29.67 in1004.7 mb 0.00 in0.0 mm 0.00 in0.0 mm 0.63 in16.0 mm
05:41 AM 64.5°F18.1°C 62.4°F16.9°C 93% 2.0 mph S3.2 kmh S 15.0 mph24.1 kmh 29.66 in1004.4 mb 0.00 in0.0 mm 0.00 in0.0 mm 0.63 in16.0 mm
05:40 AM 64.5°F18.1°C 62.4°F16.9°C 93% 3.0 mph S4.8 kmh S 15.0 mph24.1 kmh 29.66 in1004.4 mb 0.00 in0.0 mm 0.00 in0.0 mm 0.63 in16.0 mm
05:39 AM 64.5°F18.1°C 62.4°F16.9°C 93% 10.0 mph S16.1 kmh S 15.0 mph24.1 kmh 29.67 in1004.7 mb 0.00 in0.0 mm 0.00 in0.0 mm 0.63 in16.0 mm
05:38 AM 64.5°F18.1°C 62.4°F16.9°C 93% 6.0 mph SE9.7 kmh SE 15.0 mph24.1 kmh 29.67 in1004.7 mb 0.00 in0.0 mm 0.00 in0.0 mm 0.63 in16.0 mm
05:37 AM 64.6°F18.1°C 62.5°F16.9°C 93% 6.0 mph S9.7 kmh S 15.0 mph24.1 kmh 29.67 in1004.7 mb 0.00 in0.0 mm 0.00 in0.0 mm 0.63 in16.0 mm
05:36 AM 64.6°F18.1°C 62.5°F16.9°C 93% 10.0 mph S16.1 kmh S 15.0 mph24.1 kmh 29.68 in1005.1 mb 0.00 in0.0 mm 0.00 in0.0 mm 0.63 in16.0 mm
05:35 AM 64.7°F18.2°C 62.6°F17.0°C 93% 5.0 mph S8.0 kmh S 15.0 mph24.1 kmh 29.68 in1005.1 mb 0.00 in0.0 mm 0.00 in0.0 mm 0.63 in16.0 mm
05:34 AM 64.7°F18.2°C 62.6°F17.0°C 93% 5.0 mph S8.0 kmh S 15.0 mph24.1 kmh 29.68 in1005.1 mb 0.00 in0.0 mm 0.00 in0.0 mm 0.63 in16.0 mm
05:33 AM 64.7°F18.2°C 62.6°F17.0°C 93% 11.0 mph S17.7 kmh S 15.0 mph24.1 kmh 29.68 in1005.1 mb 0.00 in0.0 mm 0.00 in0.0 mm 0.63 in16.0 mm
05:32 AM 64.8°F18.2°C 62.7°F17.1°C 93% 5.0 mph S8.0 kmh S 15.0 mph24.1 kmh 29.67 in1004.7 mb 0.00 in0.0 mm 0.00 in0.0 mm 0.63 in16.0 mm
05:31 AM 64.8°F18.2°C 62.7°F17.1°C 93% 2.0 mph SSE3.2 kmh SSE 15.0 mph24.1 kmh 29.67 in1004.7 mb 0.00 in0.0 mm 0.00 in0.0 mm 0.63 in16.0 mm
05:30 AM 64.9°F18.3°C 62.8°F17.1°C 93% 11.0 mph SW17.7 kmh SW 15.0 mph24.1 kmh 29.67 in1004.7 mb 0.00 in0.0 mm 0.00 in0.0 mm 0.63 in16.0 mm
05:29 AM 64.9°F18.3°C 62.8°F17.1°C 93% 6.0 mph SE9.7 kmh SE 15.0 mph24.1 kmh 29.67 in1004.7 mb 0.00 in0.0 mm 0.00 in0.0 mm 0.63 in16.0 mm
05:28 AM 64.9°F18.3°C 62.8°F17.1°C 93% 4.0 mph S6.4 kmh S 15.0 mph24.1 kmh 29.67 in1004.7 mb 0.00 in0.0 mm 0.00 in0.0 mm 0.63 in16.0 mm
05:27 AM 64.9°F18.3°C 62.8°F17.1°C 93% 11.0 mph S17.7 kmh S 14.0 mph22.5 kmh 29.67 in1004.7 mb 0.00 in0.0 mm 0.00 in0.0 mm 0.63 in16.0 mm
05:26 AM 64.9°F18.3°C 62.8°F17.1°C 93% 3.0 mph SW4.8 kmh SW 13.0 mph20.9 kmh 29.67 in1004.7 mb 0.00 in0.0 mm 0.00 in0.0 mm 0.63 in16.0 mm
05:25 AM 65.0°F18.3°C 62.9°F17.2°C 93% 7.0 mph SSW11.3 kmh SSW 15.0 mph24.1 kmh 29.67 in1004.7 mb 0.00 in0.0 mm 0.00 in0.0 mm 0.63 in16.0 mm
05:24 AM 65.0°F18.3°C 62.9°F17.2°C 93% 4.0 mph SE6.4 kmh SE 15.0 mph24.1 kmh 29.67 in1004.7 mb 0.00 in0.0 mm 0.00 in0.0 mm 0.63 in16.0 mm
05:23 AM 65.0°F18.3°C 62.9°F17.2°C 93% 2.0 mph SW3.2 kmh SW 15.0 mph24.1 kmh 29.66 in1004.4 mb 0.00 in0.0 mm 0.00 in0.0 mm 0.63 in16.0 mm
05:22 AM 65.0°F18.3°C 62.9°F17.2°C 93% 4.0 mph SSW6.4 kmh SSW 15.0 mph24.1 kmh 29.66 in1004.4 mb 0.00 in0.0 mm 0.00 in0.0 mm 0.63 in16.0 mm
05:21 AM 65.1°F18.4°C 63.0°F17.2°C 93% 3.0 mph SE4.8 kmh SE 15.0 mph24.1 kmh 29.66 in1004.4 mb 0.00 in0.0 mm 0.00 in0.0 mm 0.63 in16.0 mm
05:20 AM 65.1°F18.4°C 63.0°F17.2°C 93% 4.0 mph S6.4 kmh S 15.0 mph24.1 kmh 29.66 in1004.4 mb 0.00 in0.0 mm 0.00 in0.0 mm 0.63 in16.0 mm
05:19 AM 65.2°F18.4°C 63.1°F17.3°C 93% 6.0 mph S9.7 kmh S 16.0 mph25.7 kmh 29.66 in1004.4 mb 0.00 in0.0 mm 0.00 in0.0 mm 0.63 in16.0 mm
05:18 AM 65.2°F18.4°C 63.1°F17.3°C 93% 12.0 mph SSE19.3 kmh SSE 18.0 mph29.0 kmh 29.66 in1004.4 mb 0.00 in0.0 mm 0.00 in0.0 mm 0.63 in16.0 mm
05:17 AM 65.3°F18.5°C 63.2°F17.3°C 93% 6.0 mph S9.7 kmh S 18.0 mph29.0 kmh 29.66 in1004.4 mb 0.00 in0.0 mm 0.00 in0.0 mm 0.63 in16.0 mm
05:16 AM 65.4°F18.6°C 63.3°F17.4°C 93% 15.0 mph SSE24.1 kmh SSE 18.0 mph29.0 kmh 29.66 in1004.4 mb 0.00 in0.0 mm 0.00 in0.0 mm 0.63 in16.0 mm
05:15 AM 65.4°F18.6°C 63.3°F17.4°C 93% 5.0 mph SE8.0 kmh SE 18.0 mph29.0 kmh 29.66 in1004.4 mb 0.00 in0.0 mm 0.00 in0.0 mm 0.63 in16.0 mm
05:14 AM 65.5°F18.6°C 63.4°F17.4°C 93% 2.0 mph SSE3.2 kmh SSE 18.0 mph29.0 kmh 29.66 in1004.4 mb 0.00 in0.0 mm 0.00 in0.0 mm 0.63 in16.0 mm
05:13 AM 65.6°F18.7°C 63.5°F17.5°C 93% 9.0 mph SSW14.5 kmh SSW 18.0 mph29.0 kmh 29.67 in1004.7 mb 0.00 in0.0 mm 0.00 in0.0 mm 0.63 in16.0 mm
05:12 AM 65.6°F18.7°C 63.5°F17.5°C 93% 5.0 mph S8.0 kmh S 18.0 mph29.0 kmh 29.67 in1004.7 mb 0.00 in0.0 mm 0.00 in0.0 mm 0.63 in16.0 mm
05:11 AM 65.7°F18.7°C 63.6°F17.6°C 93% 9.0 mph S14.5 kmh S 18.0 mph29.0 kmh 29.67 in1004.7 mb 0.00 in0.0 mm 0.00 in0.0 mm 0.63 in16.0 mm
05:10 AM 65.8°F18.8°C 63.7°F17.6°C 93% 10.0 mph SSE16.1 kmh SSE 18.0 mph29.0 kmh 29.68 in1005.1 mb 0.00 in0.0 mm 0.00 in0.0 mm 0.63 in16.0 mm
05:09 AM 65.8°F18.8°C 63.7°F17.6°C 93% 5.0 mph S8.0 kmh S 18.0 mph29.0 kmh 29.68 in1005.1 mb 0.00 in0.0 mm 0.00 in0.0 mm 0.63 in16.0 mm
05:08 AM 65.9°F18.8°C 63.8°F17.7°C 93% 5.0 mph SSW8.0 kmh SSW 18.0 mph29.0 kmh 29.68 in1005.1 mb 0.00 in0.0 mm 0.00 in0.0 mm 0.63 in16.0 mm
05:07 AM 65.9°F18.8°C 63.8°F17.7°C 93% 3.0 mph SSE4.8 kmh SSE 18.0 mph29.0 kmh 29.68 in1005.1 mb 0.00 in0.0 mm 0.00 in0.0 mm 0.63 in16.0 mm
05:06 AM 65.9°F18.8°C 63.8°F17.7°C 93% 14.0 mph S22.5 kmh S 18.0 mph29.0 kmh 29.68 in1005.1 mb 0.00 in0.0 mm 0.00 in0.0 mm 0.63 in16.0 mm
05:05 AM 66.0°F18.9°C 63.9°F17.7°C 93% 7.0 mph S11.3 kmh S 18.0 mph29.0 kmh 29.68 in1005.1 mb 0.00 in0.0 mm 0.00 in0.0 mm 0.63 in16.0 mm
05:04 AM 66.0°F18.9°C 63.9°F17.7°C 93% 16.0 mph S25.7 kmh S 20.0 mph32.2 kmh 29.68 in1005.1 mb 0.00 in0.0 mm 0.00 in0.0 mm 0.63 in16.0 mm
05:03 AM 66.1°F18.9°C 64.0°F17.8°C 93% 8.0 mph S12.9 kmh S 20.0 mph32.2 kmh 29.68 in1005.1 mb 0.00 in0.0 mm 0.00 in0.0 mm 0.63 in16.0 mm
05:02 AM 66.2°F19.0°C 64.1°F17.8°C 93% 6.0 mph S9.7 kmh S 20.0 mph32.2 kmh 29.69 in1005.4 mb 0.00 in0.0 mm 0.00 in0.0 mm 0.62 in15.7 mm
05:01 AM 66.3°F19.1°C 64.5°F18.1°C 94% 5.0 mph SW8.0 kmh SW 20.0 mph32.2 kmh 29.69 in1005.4 mb 0.00 in0.0 mm 0.00 in0.0 mm 0.62 in15.7 mm
05:00 AM 66.5°F19.2°C 64.7°F18.2°C 94% 6.0 mph S9.7 kmh S 20.0 mph32.2 kmh 29.69 in1005.4 mb 0.00 in0.0 mm 0.00 in0.0 mm 0.62 in15.7 mm
04:59 AM 66.5°F19.2°C 64.7°F18.2°C 94% 3.0 mph S4.8 kmh S 20.0 mph32.2 kmh 29.69 in1005.4 mb 0.00 in0.0 mm 0.00 in0.0 mm 0.62 in15.7 mm
04:58 AM 66.6°F19.2°C 64.8°F18.2°C 94% 7.0 mph S11.3 kmh S 20.0 mph32.2 kmh 29.69 in1005.4 mb 0.00 in0.0 mm 0.00 in0.0 mm 0.62 in15.7 mm
04:57 AM 66.6°F19.2°C 64.8°F18.2°C 94% 2.0 mph S3.2 kmh S 20.0 mph32.2 kmh 29.69 in1005.4 mb 0.00 in0.0 mm 0.00 in0.0 mm 0.62 in15.7 mm
04:56 AM 66.7°F19.3°C 64.9°F18.3°C 94% 15.0 mph S24.1 kmh S 20.0 mph32.2 kmh 29.69 in1005.4 mb 0.00 in0.0 mm 0.00 in0.0 mm 0.62 in15.7 mm
04:55 AM 66.8°F19.3°C 65.0°F18.3°C 94% 11.0 mph S17.7 kmh S 20.0 mph32.2 kmh 29.69 in1005.4 mb 0.00 in0.0 mm 0.00 in0.0 mm 0.62 in15.7 mm
04:54 AM 66.8°F19.3°C 65.0°F18.3°C 94% 5.0 mph SW8.0 kmh SW 19.0 mph30.6 kmh 29.69 in1005.4 mb 0.00 in0.0 mm 0.00 in0.0 mm 0.62 in15.7 mm
04:53 AM 66.9°F19.4°C 65.1°F18.4°C 94% 14.0 mph SSW22.5 kmh SSW 19.0 mph30.6 kmh 29.69 in1005.4 mb 0.00 in0.0 mm 0.00 in0.0 mm 0.62 in15.7 mm
04:52 AM 66.9°F19.4°C 65.1°F18.4°C 94% 6.0 mph SSE9.7 kmh SSE 19.0 mph30.6 kmh 29.69 in1005.4 mb 0.00 in0.0 mm 0.00 in0.0 mm 0.62 in15.7 mm
04:51 AM 66.9°F19.4°C 65.1°F18.4°C 94% 8.0 mph SE12.9 kmh SE 19.0 mph30.6 kmh 29.70 in1005.8 mb 0.00 in0.0 mm 0.00 in0.0 mm 0.62 in15.7 mm
04:50 AM 66.9°F19.4°C 65.1°F18.4°C 94% 8.0 mph SE12.9 kmh SE 19.0 mph30.6 kmh 29.70 in1005.8 mb 0.00 in0.0 mm 0.00 in0.0 mm 0.62 in15.7 mm
04:49 AM 66.9°F19.4°C 65.4°F18.6°C 95% 8.0 mph SSE12.9 kmh SSE 25.0 mph40.2 kmh 29.70 in1005.8 mb 0.00 in0.0 mm 0.00 in0.0 mm 0.62 in15.7 mm
04:48 AM 66.9°F19.4°C 65.4°F18.6°C 95% 6.0 mph S9.7 kmh S 25.0 mph40.2 kmh 29.70 in1005.8 mb 0.00 in0.0 mm 0.00 in0.0 mm 0.62 in15.7 mm
04:47 AM 66.9°F19.4°C 65.4°F18.6°C 95% 8.0 mph S12.9 kmh S 29.0 mph46.7 kmh 29.70 in1005.8 mb 0.00 in0.0 mm 0.00 in0.0 mm 0.62 in15.7 mm
04:46 AM 66.9°F19.4°C 65.4°F18.6°C 95% 8.0 mph SE12.9 kmh SE 29.0 mph46.7 kmh 29.70 in1005.8 mb 0.00 in0.0 mm 0.00 in0.0 mm 0.62 in15.7 mm
04:45 AM 66.9°F19.4°C 65.4°F18.6°C 95% 13.0 mph SSE20.9 kmh SSE 29.0 mph46.7 kmh 29.70 in1005.8 mb 0.00 in0.0 mm 0.00 in0.0 mm 0.62 in15.7 mm
04:44 AM 66.8°F19.3°C 65.3°F18.5°C 95% 8.0 mph SSE12.9 kmh SSE 29.0 mph46.7 kmh 29.70 in1005.8 mb 0.00 in0.0 mm 0.00 in0.0 mm 0.62 in15.7 mm
04:43 AM 66.8°F19.3°C 65.3°F18.5°C 95% 10.0 mph S16.1 kmh S 29.0 mph46.7 kmh 29.70 in1005.8 mb 0.00 in0.0 mm 0.00 in0.0 mm 0.62 in15.7 mm
04:42 AM 66.8°F19.3°C 65.3°F18.5°C 95% 11.0 mph SE17.7 kmh SE 29.0 mph46.7 kmh 29.70 in1005.8 mb 0.00 in0.0 mm 0.00 in0.0 mm 0.62 in15.7 mm
04:41 AM 66.8°F19.3°C 65.3°F18.5°C 95% 11.0 mph S17.7 kmh S 29.0 mph46.7 kmh 29.70 in1005.8 mb 0.00 in0.0 mm 0.00 in0.0 mm 0.62 in15.7 mm
04:40 AM 66.8°F19.3°C 65.3°F18.5°C 95% 14.0 mph W22.5 kmh W 29.0 mph46.7 kmh 29.70 in1005.8 mb 0.00 in0.0 mm 0.00 in0.0 mm 0.62 in15.7 mm
04:39 AM 66.8°F19.3°C 65.3°F18.5°C 95% 6.0 mph SE9.7 kmh SE 29.0 mph46.7 kmh 29.70 in1005.8 mb 0.00 in0.0 mm 0.00 in0.0 mm 0.62 in15.7 mm
04:38 AM 66.8°F19.3°C 65.3°F18.5°C 95% 20.0 mph SSE32.2 kmh SSE 29.0 mph46.7 kmh 29.70 in1005.8 mb 0.00 in0.0 mm 0.00 in0.0 mm 0.61 in15.5 mm
04:37 AM 66.8°F19.3°C 65.3°F18.5°C 95% 11.0 mph SSE17.7 kmh SSE 28.0 mph45.1 kmh 29.70 in1005.8 mb 0.00 in0.0 mm 0.00 in0.0 mm 0.61 in15.5 mm
04:36 AM 66.8°F19.3°C 65.3°F18.5°C 95% 4.0 mph SSW6.4 kmh SSW 28.0 mph45.1 kmh 29.70 in1005.8 mb 0.04 in1.0 mm 0.00 in0.0 mm 0.61 in15.5 mm
04:35 AM 66.8°F19.3°C 65.3°F18.5°C 95% 9.0 mph S14.5 kmh S 31.0 mph49.9 kmh 29.70 in1005.8 mb 0.04 in1.0 mm 0.00 in0.0 mm 0.61 in15.5 mm
04:34 AM 66.8°F19.3°C 65.3°F18.5°C 95% 4.0 mph SSW6.4 kmh SSW 31.0 mph49.9 kmh 29.70 in1005.8 mb 0.04 in1.0 mm 0.00 in0.0 mm 0.61 in15.5 mm
04:33 AM 66.8°F19.3°C 65.3°F18.5°C 95% 10.0 mph SSE16.1 kmh SSE 31.0 mph49.9 kmh 29.70 in1005.8 mb 0.04 in1.0 mm 0.00 in0.0 mm 0.61 in15.5 mm
04:32 AM 66.8°F19.3°C 65.3°F18.5°C 95% 9.0 mph S14.5 kmh S 31.0 mph49.9 kmh 29.71 in1006.1 mb 0.05 in1.3 mm 0.00 in0.0 mm 0.61 in15.5 mm
04:31 AM 66.8°F19.3°C 65.3°F18.5°C 95% 10.0 mph SSE16.1 kmh SSE 31.0 mph49.9 kmh 29.71 in1006.1 mb 0.05 in1.3 mm 0.00 in0.0 mm 0.61 in15.5 mm
04:30 AM 66.8°F19.3°C 65.3°F18.5°C 95% 9.0 mph SE14.5 kmh SE 31.0 mph49.9 kmh 29.71 in1006.1 mb 0.05 in1.3 mm 0.00 in0.0 mm 0.61 in15.5 mm
04:29 AM 66.7°F19.3°C 65.2°F18.4°C 95% 19.0 mph SSW30.6 kmh SSW 31.0 mph49.9 kmh 29.70 in1005.8 mb 0.06 in1.5 mm 0.00 in0.0 mm 0.61 in15.5 mm
04:28 AM 66.7°F19.3°C 65.2°F18.4°C 95% 10.0 mph SE16.1 kmh SE 31.0 mph49.9 kmh 29.70 in1005.8 mb 0.06 in1.5 mm 0.00 in0.0 mm 0.61 in15.5 mm
04:27 AM 66.6°F19.2°C 65.1°F18.4°C 95% 18.0 mph S29.0 kmh S 31.0 mph49.9 kmh 29.71 in1006.1 mb 0.06 in1.5 mm 0.00 in0.0 mm 0.61 in15.5 mm
04:26 AM 66.6°F19.2°C 65.1°F18.4°C 95% 14.0 mph SE22.5 kmh SE 31.0 mph49.9 kmh 29.71 in1006.1 mb 0.06 in1.5 mm 0.00 in0.0 mm 0.61 in15.5 mm
04:25 AM 66.6°F19.2°C 65.1°F18.4°C 95% 14.0 mph SE22.5 kmh SE 24.0 mph38.6 kmh 29.71 in1006.1 mb 0.06 in1.5 mm 0.00 in0.0 mm 0.61 in15.5 mm
04:24 AM 66.6°F19.2°C 65.1°F18.4°C 95% 18.0 mph S29.0 kmh S 24.0 mph38.6 kmh 29.71 in1006.1 mb 0.06 in1.5 mm 0.00 in0.0 mm 0.61 in15.5 mm
04:23 AM 66.6°F19.2°C 65.1°F18.4°C 95% 10.0 mph SE16.1 kmh SE 24.0 mph38.6 kmh 29.71 in1006.1 mb 0.06 in1.5 mm 0.00 in0.0 mm 0.61 in15.5 mm
04:22 AM 66.6°F19.2°C 65.1°F18.4°C 95% 12.0 mph S19.3 kmh S 24.0 mph38.6 kmh 29.71 in1006.1 mb 0.06 in1.5 mm 0.00 in0.0 mm 0.61 in15.5 mm
04:21 AM 66.6°F19.2°C 65.1°F18.4°C 95% 9.0 mph SE14.5 kmh SE 24.0 mph38.6 kmh 29.71 in1006.1 mb 0.06 in1.5 mm 0.00 in0.0 mm 0.61 in15.5 mm
04:20 AM 66.5°F19.2°C 65.0°F18.3°C 95% 6.0 mph E9.7 kmh E 24.0 mph38.6 kmh 29.72 in1006.4 mb 0.06 in1.5 mm 0.00 in0.0 mm 0.61 in15.5 mm
04:19 AM 66.5°F19.2°C 65.0°F18.3°C 95% 11.0 mph NE17.7 kmh NE 24.0 mph38.6 kmh 29.70 in1005.8 mb 0.06 in1.5 mm 0.00 in0.0 mm 0.60 in15.2 mm
04:18 AM 66.4°F19.1°C 64.9°F18.3°C 95% 12.0 mph S19.3 kmh S 24.0 mph38.6 kmh 29.71 in1006.1 mb 0.07 in1.8 mm 0.00 in0.0 mm 0.60 in15.2 mm
04:17 AM 66.3°F19.1°C 64.8°F18.2°C 95% 9.0 mph SSE14.5 kmh SSE 18.0 mph29.0 kmh 29.70 in1005.8 mb 0.08 in2.0 mm 0.00 in0.0 mm 0.60 in15.2 mm
04:16 AM 66.2°F19.0°C 64.7°F18.2°C 95% 6.0 mph ESE9.7 kmh ESE 17.0 mph27.4 kmh 29.70 in1005.8 mb 0.09 in2.3 mm 0.00 in0.0 mm 0.60 in15.2 mm
04:15 AM 66.2°F19.0°C 64.7°F18.2°C 95% 4.0 mph S6.4 kmh S 17.0 mph27.4 kmh 29.71 in1006.1 mb 0.11 in2.8 mm 0.00 in0.0 mm 0.60 in15.2 mm
04:14 AM 66.1°F18.9°C 64.6°F18.1°C 95% 8.0 mph SE12.9 kmh SE 17.0 mph27.4 kmh 29.71 in1006.1 mb 0.13 in3.3 mm 0.00 in0.0 mm 0.60 in15.2 mm
04:13 AM 66.1°F18.9°C 64.6°F18.1°C 95% 7.0 mph E11.3 kmh E 17.0 mph27.4 kmh 29.71 in1006.1 mb 0.17 in4.3 mm 0.00 in0.0 mm 0.60 in15.2 mm
04:12 AM 66.1°F18.9°C 64.6°F18.1°C 95% 6.0 mph ESE9.7 kmh ESE 15.0 mph24.1 kmh 29.70 in1005.8 mb 0.24 in6.1 mm 0.00 in0.0 mm 0.60 in15.2 mm
04:11 AM 66.1°F18.9°C 64.6°F18.1°C 95% 13.0 mph SE20.9 kmh SE 15.0 mph24.1 kmh 29.70 in1005.8 mb 0.27 in6.9 mm 0.00 in0.0 mm 0.60 in15.2 mm
04:10 AM 66.0°F18.9°C 64.5°F18.1°C 95% 2.0 mph E3.2 kmh E 14.0 mph22.5 kmh 29.71 in1006.1 mb 0.27 in6.9 mm 0.00 in0.0 mm 0.60 in15.2 mm
04:09 AM 66.0°F18.9°C 64.2°F17.9°C 94% 6.0 mph E9.7 kmh E 14.0 mph22.5 kmh 29.70 in1005.8 mb 0.32 in8.1 mm 0.00 in0.0 mm 0.59 in15.0 mm
04:08 AM 66.0°F18.9°C 64.2°F17.9°C 94% 2.0 mph E3.2 kmh E 15.0 mph24.1 kmh 29.70 in1005.8 mb 0.71 in18.0 mm 0.00 in0.0 mm 0.59 in15.0 mm
04:07 AM 66.0°F18.9°C 64.2°F17.9°C 94% 4.0 mph NE6.4 kmh NE 15.0 mph24.1 kmh 29.70 in1005.8 mb 1.03 in26.2 mm 0.00 in0.0 mm 0.58 in14.7 mm
04:06 AM 66.0°F18.9°C 64.2°F17.9°C 94% 3.0 mph NE4.8 kmh NE 15.0 mph24.1 kmh 29.70 in1005.8 mb 1.40 in35.6 mm 52.80 in1341.1 mm 0.56 in14.2 mm
04:05 AM 66.0°F18.9°C 64.2°F17.9°C 94% 4.0 mph ENE6.4 kmh ENE 15.0 mph24.1 kmh 29.70 in1005.8 mb 0.52 in13.2 mm 0.00 in0.0 mm 0.54 in13.7 mm
04:04 AM 66.0°F18.9°C 64.2°F17.9°C 94% 3.0 mph ESE4.8 kmh ESE 15.0 mph24.1 kmh 29.70 in1005.8 mb 0.94 in23.9 mm 0.00 in0.0 mm 0.53 in13.5 mm
04:03 AM 66.0°F18.9°C 64.2°F17.9°C 94% 5.0 mph ENE8.0 kmh ENE 15.0 mph24.1 kmh 29.71 in1006.1 mb 1.89 in48.0 mm 0.00 in0.0 mm 0.51 in13.0 mm
04:02 AM 65.9°F18.8°C 64.1°F17.8°C 94% 3.0 mph SE4.8 kmh SE 15.0 mph24.1 kmh 29.72 in1006.4 mb 3.33 in84.6 mm 102.60 in2606.0 mm 0.48 in12.2 mm
04:01 AM 66.0°F18.9°C 64.2°F17.9°C 94% 3.0 mph SE4.8 kmh SE 15.0 mph24.1 kmh 29.72 in1006.4 mb 1.62 in41.1 mm 3.00 in76.2 mm 0.44 in11.2 mm
04:00 AM 65.9°F18.8°C 64.1°F17.8°C 94% 3.0 mph SE4.8 kmh SE 15.0 mph24.1 kmh 29.73 in1006.8 mb 1.57 in39.9 mm 1.21 in30.7 mm 0.41 in10.4 mm
03:59 AM 65.9°F18.8°C 64.1°F17.8°C 94% 9.0 mph SE14.5 kmh SE 16.0 mph25.7 kmh 29.72 in1006.4 mb 0.38 in9.7 mm 6.00 in152.4 mm 0.40 in10.2 mm
03:58 AM 65.9°F18.8°C 64.1°F17.8°C 94% 13.0 mph E20.9 kmh E 16.0 mph25.7 kmh 29.72 in1006.4 mb 0.28 in7.1 mm 0.00 in0.0 mm 0.39 in9.9 mm
03:57 AM 65.9°F18.8°C 64.1°F17.8°C 94% 7.0 mph SSW11.3 kmh SSW 16.0 mph25.7 kmh 29.72 in1006.4 mb 0.31 in7.9 mm 0.00 in0.0 mm 0.38 in9.7 mm
03:56 AM 65.8°F18.8°C 64.0°F17.8°C 94% 6.0 mph NE9.7 kmh NE 17.0 mph27.4 kmh 29.72 in1006.4 mb 0.65 in16.5 mm 12.60 in320.0 mm 0.38 in9.7 mm
03:55 AM 65.8°F18.8°C 64.0°F17.8°C 94% 2.0 mph SE3.2 kmh SE 17.0 mph27.4 kmh 29.72 in1006.4 mb 0.44 in11.2 mm 0.00 in0.0 mm 0.37 in9.4 mm
03:54 AM 65.8°F18.8°C 64.0°F17.8°C 94% 4.0 mph S6.4 kmh S 17.0 mph27.4 kmh 29.72 in1006.4 mb 0.89 in22.6 mm 0.00 in0.0 mm 0.36 in9.1 mm
03:53 AM 65.8°F18.8°C 64.0°F17.8°C 94% 5.0 mph SSE8.0 kmh SSE 17.0 mph27.4 kmh 29.72 in1006.4 mb 2.18 in55.4 mm 27.60 in701.0 mm 0.35 in8.9 mm
03:52 AM 65.8°F18.8°C 64.0°F17.8°C 94% 3.0 mph NNE4.8 kmh NNE 17.0 mph27.4 kmh 29.73 in1006.8 mb 1.72 in43.7 mm 57.00 in1447.8 mm 0.32 in8.1 mm
03:51 AM 65.8°F18.8°C 64.0°F17.8°C 94% 3.0 mph SE4.8 kmh SE 17.0 mph27.4 kmh 29.73 in1006.8 mb 0.77 in19.6 mm 0.00 in0.0 mm 0.29 in7.4 mm
03:50 AM 65.8°F18.8°C 64.0°F17.8°C 94% 7.0 mph SE11.3 kmh SE 17.0 mph27.4 kmh 29.73 in1006.8 mb 1.30 in33.0 mm 0.00 in0.0 mm 0.27 in6.9 mm
03:49 AM 65.8°F18.8°C 64.0°F17.8°C 94% 4.0 mph SE6.4 kmh SE 17.0 mph27.4 kmh 29.73 in1006.8 mb 1.70 in43.2 mm 44.40 in1127.8 mm 0.25 in6.4 mm
03:48 AM 65.8°F18.8°C 64.0°F17.8°C 94% 2.0 mph NE3.2 kmh NE 17.0 mph27.4 kmh 29.73 in1006.8 mb 0.96 in24.4 mm 0.00 in0.0 mm 0.22 in5.6 mm
03:47 AM 65.8°F18.8°C 64.0°F17.8°C 94% 11.0 mph ESE17.7 kmh ESE 17.0 mph27.4 kmh 29.73 in1006.8 mb 3.53 in89.7 mm 0.00 in0.0 mm 0.20 in5.1 mm
03:46 AM 65.8°F18.8°C 64.0°F17.8°C 94% 2.0 mph ESE3.2 kmh ESE 9.0 mph14.5 kmh 29.73 in1006.8 mb 4.36 in110.7 mm 111.60 in2834.6 mm 0.15 in3.8 mm
03:45 AM 65.7°F18.7°C 63.9°F17.7°C 94% 5.0 mph SE8.0 kmh SE 9.0 mph14.5 kmh 29.73 in1006.8 mb 2.50 in63.5 mm 0.00 in0.0 mm 0.09 in2.3 mm
03:44 AM 65.7°F18.7°C 63.9°F17.7°C 94% 2.0 mph E3.2 kmh E 9.0 mph14.5 kmh 29.73 in1006.8 mb 2.61 in66.3 mm 156.60 in3977.6 mm 0.06 in1.5 mm
03:43 AM 65.6°F18.7°C 63.8°F17.7°C 94% 3.0 mph SE4.8 kmh SE 9.0 mph14.5 kmh 29.73 in1006.8 mb 0.00 in0.0 mm 0.00 in0.0 mm 0.02 in0.5 mm
03:42 AM 65.6°F18.7°C 63.8°F17.7°C 94% 2.0 mph SE3.2 kmh SE 8.0 mph12.9 kmh 29.72 in1006.4 mb 0.00 in0.0 mm 0.00 in0.0 mm 0.02 in0.5 mm
03:41 AM 65.6°F18.7°C 63.8°F17.7°C 94% 1.0 mph SSE1.6 kmh SSE 8.0 mph12.9 kmh 29.72 in1006.4 mb 0.00 in0.0 mm 0.00 in0.0 mm 0.02 in0.5 mm
03:40 AM 65.5°F18.6°C 63.7°F17.6°C 94% 2.0 mph SE3.2 kmh SE 8.0 mph12.9 kmh 29.71 in1006.1 mb 0.00 in0.0 mm 0.00 in0.0 mm 0.02 in0.5 mm
03:39 AM 65.5°F18.6°C 63.7°F17.6°C 94% 4.0 mph ESE6.4 kmh ESE 8.0 mph12.9 kmh 29.72 in1006.4 mb 0.00 in0.0 mm 0.00 in0.0 mm 0.02 in0.5 mm
03:38 AM 65.5°F18.6°C 63.7°F17.6°C 94% 3.0 mph NNE4.8 kmh NNE 8.0 mph12.9 kmh 29.71 in1006.1 mb 0.00 in0.0 mm 0.00 in0.0 mm 0.02 in0.5 mm
03:37 AM 65.4°F18.6°C 63.6°F17.6°C 94% 4.0 mph E6.4 kmh E 8.0 mph12.9 kmh 29.71 in1006.1 mb 0.00 in0.0 mm 0.00 in0.0 mm 0.02 in0.5 mm
03:36 AM 65.4°F18.6°C 63.6°F17.6°C 94% 5.0 mph E8.0 kmh E 8.0 mph12.9 kmh 29.71 in1006.1 mb 0.00 in0.0 mm 0.00 in0.0 mm 0.02 in0.5 mm
03:35 AM 65.3°F18.5°C 63.5°F17.5°C 94% 1.0 mph SE1.6 kmh SE 7.0 mph11.3 kmh 29.72 in1006.4 mb 0.00 in0.0 mm 0.00 in0.0 mm 0.02 in0.5 mm
03:34 AM 65.3°F18.5°C 63.5°F17.5°C 94% 2.0 mph ESE3.2 kmh ESE 7.0 mph11.3 kmh 29.72 in1006.4 mb 0.00 in0.0 mm 0.00 in0.0 mm 0.02 in0.5 mm
03:33 AM 65.2°F18.4°C 63.4°F17.4°C 94% 5.0 mph E8.0 kmh E 7.0 mph11.3 kmh 29.72 in1006.4 mb 0.00 in0.0 mm 0.00 in0.0 mm 0.02 in0.5 mm
03:32 AM 65.2°F18.4°C 63.4°F17.4°C 94% 1.0 mph E1.6 kmh E 9.0 mph14.5 kmh 29.72 in1006.4 mb 0.00 in0.0 mm 0.00 in0.0 mm 0.02 in0.5 mm
03:31 AM 65.2°F18.4°C 63.4°F17.4°C 94% 6.0 mph ESE9.7 kmh ESE 9.0 mph14.5 kmh 29.72 in1006.4 mb 0.00 in0.0 mm 0.00 in0.0 mm 0.02 in0.5 mm
03:30 AM 65.1°F18.4°C 63.3°F17.4°C 94% 1.0 mph NNE1.6 kmh NNE 9.0 mph14.5 kmh 29.72 in1006.4 mb 0.00 in0.0 mm 0.00 in0.0 mm 0.02 in0.5 mm
03:29 AM 65.0°F18.3°C 63.2°F17.3°C 94% 3.0 mph ENE4.8 kmh ENE 9.0 mph14.5 kmh 29.72 in1006.4 mb 0.00 in0.0 mm 0.00 in0.0 mm 0.02 in0.5 mm
03:28 AM 65.0°F18.3°C 63.2°F17.3°C 94% 5.0 mph E8.0 kmh E 9.0 mph14.5 kmh 29.72 in1006.4 mb 0.00 in0.0 mm 0.00 in0.0 mm 0.02 in0.5 mm
03:27 AM 64.9°F18.3°C 63.1°F17.3°C 94% 3.0 mph NE4.8 kmh NE 9.0 mph14.5 kmh 29.72 in1006.4 mb 0.00 in0.0 mm 0.00 in0.0 mm 0.02 in0.5 mm
03:26 AM 64.9°F18.3°C 63.1°F17.3°C 94% 3.0 mph ENE4.8 kmh ENE 9.0 mph14.5 kmh 29.72 in1006.4 mb 0.00 in0.0 mm 0.00 in0.0 mm 0.02 in0.5 mm
03:25 AM 64.8°F18.2°C 63.0°F17.2°C 94% 4.0 mph NE6.4 kmh NE 9.0 mph14.5 kmh 29.72 in1006.4 mb 0.00 in0.0 mm 0.00 in0.0 mm 0.02 in0.5 mm
03:24 AM 64.8°F18.2°C 63.0°F17.2°C 94% 4.0 mph NE6.4 kmh NE 9.0 mph14.5 kmh 29.72 in1006.4 mb 0.00 in0.0 mm 0.00 in0.0 mm 0.02 in0.5 mm
03:23 AM 64.8°F18.2°C 63.0°F17.2°C 94% 4.0 mph E6.4 kmh E 9.0 mph14.5 kmh 29.73 in1006.8 mb 0.00 in0.0 mm 0.00 in0.0 mm 0.02 in0.5 mm
03:22 AM 64.7°F18.2°C 62.9°F17.2°C 94% 4.0 mph E6.4 kmh E 7.0 mph11.3 kmh 29.73 in1006.8 mb 0.00 in0.0 mm 0.00 in0.0 mm 0.02 in0.5 mm
03:21 AM 64.7°F18.2°C 62.9°F17.2°C 94% 3.0 mph ENE4.8 kmh ENE 7.0 mph11.3 kmh 29.74 in1007.1 mb 0.00 in0.0 mm 0.00 in0.0 mm 0.02 in0.5 mm
03:20 AM 64.7°F18.2°C 62.9°F17.2°C 94% 2.0 mph ESE3.2 kmh ESE 7.0 mph11.3 kmh 29.74 in1007.1 mb 0.00 in0.0 mm 0.00 in0.0 mm 0.02 in0.5 mm
03:19 AM 64.6°F18.1°C 62.8°F17.1°C 94% 3.0 mph ENE4.8 kmh ENE 7.0 mph11.3 kmh 29.74 in1007.1 mb 0.00 in0.0 mm 0.00 in0.0 mm 0.02 in0.5 mm
03:18 AM 64.6°F18.1°C 62.8°F17.1°C 94% 2.0 mph ENE3.2 kmh ENE 7.0 mph11.3 kmh 29.74 in1007.1 mb 0.00 in0.0 mm 0.00 in0.0 mm 0.02 in0.5 mm
03:17 AM 64.5°F18.1°C 62.7°F17.1°C 94% 5.0 mph E8.0 kmh E 7.0 mph11.3 kmh 29.74 in1007.1 mb 0.00 in0.0 mm 0.00 in0.0 mm 0.02 in0.5 mm
03:16 AM 64.5°F18.1°C 62.7°F17.1°C 94% 3.0 mph S4.8 kmh S 7.0 mph11.3 kmh 29.75 in1007.5 mb 0.00 in0.0 mm 0.00 in0.0 mm 0.02 in0.5 mm
03:15 AM 64.5°F18.1°C 62.7°F17.1°C 94% 4.0 mph SE6.4 kmh SE 8.0 mph12.9 kmh 29.75 in1007.5 mb 0.00 in0.0 mm 0.00 in0.0 mm 0.02 in0.5 mm
03:14 AM 64.4°F18.0°C 62.6°F17.0°C 94% 1.0 mph NE1.6 kmh NE 8.0 mph12.9 kmh 29.75 in1007.5 mb 0.00 in0.0 mm 0.00 in0.0 mm 0.02 in0.5 mm
03:13 AM 64.4°F18.0°C 62.9°F17.2°C 95% 3.0 mph NE4.8 kmh NE 8.0 mph12.9 kmh 29.75 in1007.5 mb 0.00 in0.0 mm 0.00 in0.0 mm 0.02 in0.5 mm
03:12 AM 64.3°F17.9°C 62.8°F17.1°C 95% 4.0 mph E6.4 kmh E 8.0 mph12.9 kmh 29.75 in1007.5 mb 0.00 in0.0 mm 0.00 in0.0 mm 0.02 in0.5 mm
03:11 AM 64.3°F17.9°C 62.8°F17.1°C 95% Calm Calm 9.0 mph14.5 kmh 29.76 in1007.8 mb 0.00 in0.0 mm 0.00 in0.0 mm 0.02 in0.5 mm
03:10 AM 64.3°F17.9°C 62.8°F17.1°C 95% 3.0 mph E4.8 kmh E 9.0 mph14.5 kmh 29.76 in1007.8 mb 0.00 in0.0 mm 0.00 in0.0 mm 0.02 in0.5 mm
03:09 AM 64.2°F17.9°C 62.7°F17.1°C 95% 4.0 mph ESE6.4 kmh ESE 9.0 mph14.5 kmh 29.76 in1007.8 mb 0.00 in0.0 mm 0.00 in0.0 mm 0.02 in0.5 mm
03:08 AM 64.2°F17.9°C 62.7°F17.1°C 95% 1.0 mph ENE1.6 kmh ENE 10.0 mph16.1 kmh 29.77 in1008.1 mb 0.00 in0.0 mm 0.00 in0.0 mm 0.02 in0.5 mm
03:07 AM 64.2°F17.9°C 62.7°F17.1°C 95% 2.0 mph SE3.2 kmh SE 10.0 mph16.1 kmh 29.77 in1008.1 mb 0.00 in0.0 mm 0.00 in0.0 mm 0.02 in0.5 mm
03:06 AM 64.1°F17.8°C 62.6°F17.0°C 95% 4.0 mph E6.4 kmh E 10.0 mph16.1 kmh 29.77 in1008.1 mb 0.00 in0.0 mm 0.00 in0.0 mm 0.02 in0.5 mm
03:05 AM 64.1°F17.8°C 62.6°F17.0°C 95% 2.0 mph E3.2 kmh E 10.0 mph16.1 kmh 29.77 in1008.1 mb 0.00 in0.0 mm 0.00 in0.0 mm 0.02 in0.5 mm
03:04 AM 64.1°F17.8°C 62.6°F17.0°C 95% 3.0 mph NE4.8 kmh NE 10.0 mph16.1 kmh 29.77 in1008.1 mb 0.00 in0.0 mm 0.00 in0.0 mm 0.02 in0.5 mm
03:03 AM 64.1°F17.8°C 62.6°F17.0°C 95% 4.0 mph ESE6.4 kmh ESE 10.0 mph16.1 kmh 29.78 in1008.5 mb 0.00 in0.0 mm 0.00 in0.0 mm 0.02 in0.5 mm
03:02 AM 64.1°F17.8°C 62.6°F17.0°C 95% 4.0 mph SE6.4 kmh SE 10.0 mph16.1 kmh 29.77 in1008.1 mb 0.00 in0.0 mm 0.00 in0.0 mm 0.02 in0.5 mm
03:01 AM 64.1°F17.8°C 62.6°F17.0°C 95% 1.0 mph SSE1.6 kmh SSE 10.0 mph16.1 kmh 29.77 in1008.1 mb 0.00 in0.0 mm 0.00 in0.0 mm 0.02 in0.5 mm
03:00 AM 64.2°F17.9°C 62.7°F17.1°C 95% 4.0 mph SE6.4 kmh SE 10.0 mph16.1 kmh 29.77 in1008.1 mb 0.00 in0.0 mm 0.00 in0.0 mm 0.02 in0.5 mm
02:59 AM 64.2°F17.9°C 62.7°F17.1°C 95% 4.0 mph SE6.4 kmh SE 10.0 mph16.1 kmh 29.77 in1008.1 mb 0.00 in0.0 mm 0.00 in0.0 mm 0.02 in0.5 mm
02:58 AM 64.2°F17.9°C 62.7°F17.1°C 95% 2.0 mph SSW3.2 kmh SSW 10.0 mph16.1 kmh 29.77 in1008.1 mb 0.00 in0.0 mm 0.00 in0.0 mm 0.02 in0.5 mm
02:57 AM 64.2°F17.9°C 62.7°F17.1°C 95% 2.0 mph E3.2 kmh E 10.0 mph16.1 kmh 29.77 in1008.1 mb 0.00 in0.0 mm 0.00 in0.0 mm 0.02 in0.5 mm
02:56 AM 64.3°F17.9°C 62.8°F17.1°C 95% 8.0 mph E12.9 kmh E 10.0 mph16.1 kmh 29.77 in1008.1 mb 0.00 in0.0 mm 0.00 in0.0 mm 0.02 in0.5 mm
02:55 AM 64.3°F17.9°C 62.8°F17.1°C 95% 2.0 mph SE3.2 kmh SE 10.0 mph16.1 kmh 29.78 in1008.5 mb 0.00 in0.0 mm 0.00 in0.0 mm 0.02 in0.5 mm
02:54 AM 64.3°F17.9°C 62.8°F17.1°C 95% 4.0 mph SE6.4 kmh SE 9.0 mph14.5 kmh 29.78 in1008.5 mb 0.00 in0.0 mm 0.00 in0.0 mm 0.02 in0.5 mm
02:53 AM 64.3°F17.9°C 62.8°F17.1°C 95% 6.0 mph E9.7 kmh E 9.0 mph14.5 kmh 29.78 in1008.5 mb 0.00 in0.0 mm 0.00 in0.0 mm 0.02 in0.5 mm
02:52 AM 64.3°F17.9°C 62.8°F17.1°C 95% 3.0 mph SE4.8 kmh SE 11.0 mph17.7 kmh 29.78 in1008.5 mb 0.00 in0.0 mm 0.00 in0.0 mm 0.02 in0.5 mm
02:51 AM 64.3°F17.9°C 62.8°F17.1°C 95% 5.0 mph SE8.0 kmh SE 11.0 mph17.7 kmh 29.78 in1008.5 mb 0.00 in0.0 mm 0.00 in0.0 mm 0.02 in0.5 mm
02:50 AM 64.4°F18.0°C 62.9°F17.2°C 95% 2.0 mph SE3.2 kmh SE 11.0 mph17.7 kmh 29.77 in1008.1 mb 0.00 in0.0 mm 0.00 in0.0 mm 0.02 in0.5 mm
02:49 AM 64.4°F18.0°C 62.9°F17.2°C 95% 1.0 mph E1.6 kmh E 11.0 mph17.7 kmh 29.77 in1008.1 mb 0.00 in0.0 mm 0.00 in0.0 mm 0.02 in0.5 mm
02:48 AM 64.4°F18.0°C 62.9°F17.2°C 95% 2.0 mph E3.2 kmh E 11.0 mph17.7 kmh 29.77 in1008.1 mb 0.00 in0.0 mm 0.00 in0.0 mm 0.02 in0.5 mm
02:47 AM 64.4°F18.0°C 62.9°F17.2°C 95% 5.0 mph SE8.0 kmh SE 11.0 mph17.7 kmh 29.76 in1007.8 mb 0.00 in0.0 mm 0.00 in0.0 mm 0.02 in0.5 mm
02:46 AM 64.4°F18.0°C 62.9°F17.2°C 95% 2.0 mph NE3.2 kmh NE 11.0 mph17.7 kmh 29.76 in1007.8 mb 0.00 in0.0 mm 0.00 in0.0 mm 0.02 in0.5 mm
02:45 AM 64.4°F18.0°C 62.9°F17.2°C 95% 1.0 mph ENE1.6 kmh ENE 11.0 mph17.7 kmh 29.76 in1007.8 mb 0.00 in0.0 mm 0.00 in0.0 mm 0.02 in0.5 mm
02:44 AM 64.4°F18.0°C 62.9°F17.2°C 95% 2.0 mph SE3.2 kmh SE 11.0 mph17.7 kmh 29.76 in1007.8 mb 0.00 in0.0 mm 0.00 in0.0 mm 0.02 in0.5 mm
02:43 AM 64.4°F18.0°C 62.9°F17.2°C 95% 5.0 mph SE8.0 kmh SE 11.0 mph17.7 kmh 29.76 in1007.8 mb 0.00 in0.0 mm 0.00 in0.0 mm 0.02 in0.5 mm
02:42 AM 64.4°F18.0°C 62.9°F17.2°C 95% 3.0 mph SE4.8 kmh SE 10.0 mph16.1 kmh 29.76 in1007.8 mb 0.00 in0.0 mm 0.00 in0.0 mm 0.02 in0.5 mm
02:41 AM 64.4°F18.0°C 62.9°F17.2°C 95% 3.0 mph E4.8 kmh E 7.0 mph11.3 kmh 29.76 in1007.8 mb 0.00 in0.0 mm 0.00 in0.0 mm 0.02 in0.5 mm
02:40 AM 64.4°F18.0°C 62.9°F17.2°C 95% 4.0 mph ENE6.4 kmh ENE 7.0 mph11.3 kmh 29.76 in1007.8 mb 0.00 in0.0 mm 0.00 in0.0 mm 0.02 in0.5 mm
02:39 AM 64.5°F18.1°C 63.0°F17.2°C 95% 2.0 mph SE3.2 kmh SE 7.0 mph11.3 kmh 29.76 in1007.8 mb 0.00 in0.0 mm 0.00 in0.0 mm 0.02 in0.5 mm
02:38 AM 64.5°F18.1°C 63.0°F17.2°C 95% 3.0 mph E4.8 kmh E 7.0 mph11.3 kmh 29.76 in1007.8 mb 0.00 in0.0 mm 0.00 in0.0 mm 0.02 in0.5 mm
02:37 AM 64.5°F18.1°C 63.0°F17.2°C 95% 3.0 mph E4.8 kmh E 7.0 mph11.3 kmh 29.76 in1007.8 mb 0.00 in0.0 mm 0.00 in0.0 mm 0.02 in0.5 mm
02:36 AM 64.5°F18.1°C 63.0°F17.2°C 95% 2.0 mph SE3.2 kmh SE 7.0 mph11.3 kmh 29.76 in1007.8 mb 0.00 in0.0 mm 0.00 in0.0 mm 0.02 in0.5 mm
02:35 AM 64.5°F18.1°C 63.0°F17.2°C 95% 1.0 mph E1.6 kmh E 6.0 mph9.7 kmh 29.76 in1007.8 mb 0.00 in0.0 mm 0.00 in0.0 mm 0.02 in0.5 mm
02:34 AM 64.5°F18.1°C 63.0°F17.2°C 95% 1.0 mph S1.6 kmh S 6.0 mph9.7 kmh 29.77 in1008.1 mb 0.00 in0.0 mm 0.00 in0.0 mm 0.02 in0.5 mm
02:33 AM 64.5°F18.1°C 63.0°F17.2°C 95% 6.0 mph S9.7 kmh S 8.0 mph12.9 kmh 29.77 in1008.1 mb 0.00 in0.0 mm 0.00 in0.0 mm 0.02 in0.5 mm
02:32 AM 64.5°F18.1°C 63.0°F17.2°C 95% 1.0 mph ENE1.6 kmh ENE 8.0 mph12.9 kmh 29.77 in1008.1 mb 0.00 in0.0 mm 0.00 in0.0 mm 0.02 in0.5 mm
02:31 AM 64.5°F18.1°C 63.0°F17.2°C 95% 3.0 mph SSE4.8 kmh SSE 8.0 mph12.9 kmh 29.77 in1008.1 mb 0.00 in0.0 mm 0.00 in0.0 mm 0.02 in0.5 mm
02:30 AM 64.5°F18.1°C 63.0°F17.2°C 95% 5.0 mph SE8.0 kmh SE 9.0 mph14.5 kmh 29.77 in1008.1 mb 0.00 in0.0 mm 0.00 in0.0 mm 0.02 in0.5 mm
02:29 AM 64.5°F18.1°C 63.0°F17.2°C 95% 4.0 mph SE6.4 kmh SE 9.0 mph14.5 kmh 29.77 in1008.1 mb 0.00 in0.0 mm 0.00 in0.0 mm 0.02 in0.5 mm
02:28 AM 64.5°F18.1°C 63.0°F17.2°C 95% 4.0 mph ENE6.4 kmh ENE 9.0 mph14.5 kmh 29.76 in1007.8 mb 0.00 in0.0 mm 0.00 in0.0 mm 0.02 in0.5 mm
02:27 AM 64.5°F18.1°C 63.0°F17.2°C 95% 4.0 mph E6.4 kmh E 9.0 mph14.5 kmh 29.77 in1008.1 mb 0.00 in0.0 mm 0.00 in0.0 mm 0.02 in0.5 mm
02:26 AM 64.5°F18.1°C 63.0°F17.2°C 95% 5.0 mph SE8.0 kmh SE 9.0 mph14.5 kmh 29.77 in1008.1 mb 0.00 in0.0 mm 0.00 in0.0 mm 0.02 in0.5 mm
02:25 AM 64.5°F18.1°C 63.0°F17.2°C 95% 2.0 mph E3.2 kmh E 10.0 mph16.1 kmh 29.77 in1008.1 mb 0.00 in0.0 mm 0.00 in0.0 mm 0.02 in0.5 mm
02:24 AM 64.5°F18.1°C 63.0°F17.2°C 95% 2.0 mph E3.2 kmh E 10.0 mph16.1 kmh 29.77 in1008.1 mb 0.00 in0.0 mm 0.00 in0.0 mm 0.02 in0.5 mm
02:23 AM 64.5°F18.1°C 63.0°F17.2°C 95% 4.0 mph ESE6.4 kmh ESE 14.0 mph22.5 kmh 29.77 in1008.1 mb 0.00 in0.0 mm 0.00 in0.0 mm 0.02 in0.5 mm
02:22 AM 64.5°F18.1°C 63.0°F17.2°C 95% 6.0 mph SSE9.7 kmh SSE 14.0 mph22.5 kmh 29.77 in1008.1 mb 0.00 in0.0 mm 0.00 in0.0 mm 0.02 in0.5 mm
02:21 AM 64.4°F18.0°C 62.9°F17.2°C 95% 3.0 mph E4.8 kmh E 14.0 mph22.5 kmh 29.77 in1008.1 mb 0.00 in0.0 mm 0.00 in0.0 mm 0.02 in0.5 mm
02:20 AM 64.4°F18.0°C 62.9°F17.2°C 95% 9.0 mph E14.5 kmh E 14.0 mph22.5 kmh 29.77 in1008.1 mb 0.00 in0.0 mm 0.00 in0.0 mm 0.02 in0.5 mm
02:19 AM 64.4°F18.0°C 62.9°F17.2°C 95% 2.0 mph E3.2 kmh E 14.0 mph22.5 kmh 29.76 in1007.8 mb 0.00 in0.0 mm 0.00 in0.0 mm 0.02 in0.5 mm
02:18 AM 64.4°F18.0°C 62.9°F17.2°C 95% 3.0 mph NE4.8 kmh NE 14.0 mph22.5 kmh 29.76 in1007.8 mb 0.00 in0.0 mm 0.00 in0.0 mm 0.02 in0.5 mm
02:17 AM 64.4°F18.0°C 62.9°F17.2°C 95% 4.0 mph E6.4 kmh E 14.0 mph22.5 kmh 29.76 in1007.8 mb 0.00 in0.0 mm 0.00 in0.0 mm 0.02 in0.5 mm
02:16 AM 64.3°F17.9°C 62.8°F17.1°C 95% 5.0 mph NNW8.0 kmh NNW 14.0 mph22.5 kmh 29.77 in1008.1 mb 0.00 in0.0 mm 0.00 in0.0 mm 0.02 in0.5 mm
02:15 AM 64.3°F17.9°C 62.8°F17.1°C 95% 2.0 mph ENE3.2 kmh ENE 14.0 mph22.5 kmh 29.77 in1008.1 mb 0.00 in0.0 mm 0.00 in0.0 mm 0.02 in0.5 mm
02:14 AM 64.3°F17.9°C 62.8°F17.1°C 95% 2.0 mph E3.2 kmh E 14.0 mph22.5 kmh 29.77 in1008.1 mb 0.00 in0.0 mm 0.00 in0.0 mm 0.02 in0.5 mm
02:13 AM 64.3°F17.9°C 62.8°F17.1°C 95% 6.0 mph ENE9.7 kmh ENE 13.0 mph20.9 kmh 29.76 in1007.8 mb 0.00 in0.0 mm 0.00 in0.0 mm 0.02 in0.5 mm
02:12 AM 64.3°F17.9°C 62.8°F17.1°C 95% 3.0 mph NE4.8 kmh NE 10.0 mph16.1 kmh 29.76 in1007.8 mb 0.00 in0.0 mm 0.00 in0.0 mm 0.02 in0.5 mm
02:11 AM 64.3°F17.9°C 62.8°F17.1°C 95% 1.0 mph E1.6 kmh E 10.0 mph16.1 kmh 29.75 in1007.5 mb 0.00 in0.0 mm 0.00 in0.0 mm 0.02 in0.5 mm
02:10 AM 64.3°F17.9°C 62.8°F17.1°C 95% 4.0 mph ENE6.4 kmh ENE 10.0 mph16.1 kmh 29.75 in1007.5 mb 0.00 in0.0 mm 0.00 in0.0 mm 0.02 in0.5 mm
02:09 AM 64.3°F17.9°C 62.8°F17.1°C 95% 5.0 mph ENE8.0 kmh ENE 10.0 mph16.1 kmh 29.76 in1007.8 mb 0.00 in0.0 mm 0.00 in0.0 mm 0.02 in0.5 mm
02:08 AM 64.3°F17.9°C 62.8°F17.1°C 95% 3.0 mph E4.8 kmh E 10.0 mph16.1 kmh 29.76 in1007.8 mb 0.00 in0.0 mm 0.00 in0.0 mm 0.02 in0.5 mm
02:07 AM 64.3°F17.9°C 62.8°F17.1°C 95% 2.0 mph ENE3.2 kmh ENE 10.0 mph16.1 kmh 29.77 in1008.1 mb 0.00 in0.0 mm 0.00 in0.0 mm 0.02 in0.5 mm
02:06 AM 64.3°F17.9°C 62.8°F17.1°C 95% 3.0 mph ENE4.8 kmh ENE 8.0 mph12.9 kmh 29.77 in1008.1 mb 0.00 in0.0 mm 0.00 in0.0 mm 0.02 in0.5 mm
02:05 AM 64.3°F17.9°C 62.8°F17.1°C 95% 4.0 mph ENE6.4 kmh ENE 8.0 mph12.9 kmh 29.77 in1008.1 mb 0.00 in0.0 mm 0.00 in0.0 mm 0.02 in0.5 mm
02:04 AM 64.3°F17.9°C 62.8°F17.1°C 95% 1.0 mph ESE1.6 kmh ESE 8.0 mph12.9 kmh 29.77 in1008.1 mb 0.00 in0.0 mm 0.00 in0.0 mm 0.02 in0.5 mm
02:03 AM 64.3°F17.9°C 62.8°F17.1°C 95% 4.0 mph E6.4 kmh E 9.0 mph14.5 kmh 29.78 in1008.5 mb 0.00 in0.0 mm 0.00 in0.0 mm 0.02 in0.5 mm
02:02 AM 64.3°F17.9°C 62.8°F17.1°C 95% 3.0 mph E4.8 kmh E 9.0 mph14.5 kmh 29.78 in1008.5 mb 0.00 in0.0 mm 0.00 in0.0 mm 0.02 in0.5 mm
02:01 AM 64.3°F17.9°C 62.8°F17.1°C 95% 4.0 mph E6.4 kmh E 9.0 mph14.5 kmh 29.79 in1008.8 mb 0.00 in0.0 mm 0.00 in0.0 mm 0.02 in0.5 mm
02:00 AM 64.3°F17.9°C 62.8°F17.1°C 95% 2.0 mph E3.2 kmh E 9.0 mph14.5 kmh 29.79 in1008.8 mb 0.00 in0.0 mm 0.00 in0.0 mm 0.02 in0.5 mm
01:59 AM 64.3°F17.9°C 62.8°F17.1°C 95% 5.0 mph SE8.0 kmh SE 9.0 mph14.5 kmh 29.80 in1009.1 mb 0.00 in0.0 mm 0.00 in0.0 mm 0.02 in0.5 mm
01:58 AM 64.3°F17.9°C 62.8°F17.1°C 95% 4.0 mph E6.4 kmh E 9.0 mph14.5 kmh 29.80 in1009.1 mb 0.00 in0.0 mm 0.00 in0.0 mm 0.02 in0.5 mm
01:57 AM 64.3°F17.9°C 62.8°F17.1°C 95% 2.0 mph ENE3.2 kmh ENE 9.0 mph14.5 kmh 29.80 in1009.1 mb 0.00 in0.0 mm 0.00 in0.0 mm 0.02 in0.5 mm
01:56 AM 64.4°F18.0°C 62.9°F17.2°C 95% 3.0 mph ESE4.8 kmh ESE 9.0 mph14.5 kmh 29.80 in1009.1 mb 0.00 in0.0 mm 0.00 in0.0 mm 0.02 in0.5 mm
01:55 AM 64.4°F18.0°C 62.9°F17.2°C 95% 3.0 mph SE4.8 kmh SE 9.0 mph14.5 kmh 29.80 in1009.1 mb 0.00 in0.0 mm 0.00 in0.0 mm 0.02 in0.5 mm
01:54 AM 64.4°F18.0°C 62.9°F17.2°C 95% 4.0 mph ENE6.4 kmh ENE 9.0 mph14.5 kmh 29.80 in1009.1 mb 0.00 in0.0 mm 0.00 in0.0 mm 0.02 in0.5 mm
01:53 AM 64.4°F18.0°C 62.9°F17.2°C 95% 4.0 mph E6.4 kmh E 8.0 mph12.9 kmh 29.80 in1009.1 mb 0.00 in0.0 mm 0.00 in0.0 mm 0.02 in0.5 mm
01:52 AM 64.4°F18.0°C 62.9°F17.2°C 95% 2.0 mph E3.2 kmh E 8.0 mph12.9 kmh 29.80 in1009.1 mb 0.00 in0.0 mm 0.00 in0.0 mm 0.02 in0.5 mm
01:51 AM 64.4°F18.0°C 62.9°F17.2°C 95% 6.0 mph NE9.7 kmh NE 8.0 mph12.9 kmh 29.80 in1009.1 mb 0.00 in0.0 mm 0.00 in0.0 mm 0.02 in0.5 mm
01:50 AM 64.4°F18.0°C 62.9°F17.2°C 95% 4.0 mph NE6.4 kmh NE 8.0 mph12.9 kmh 29.80 in1009.1 mb 0.00 in0.0 mm 0.00 in0.0 mm 0.02 in0.5 mm
01:49 AM 64.4°F18.0°C 62.9°F17.2°C 95% 4.0 mph ESE6.4 kmh ESE 8.0 mph12.9 kmh 29.80 in1009.1 mb 0.04 in1.0 mm 0.00 in0.0 mm 0.02 in0.5 mm
01:48 AM 64.4°F18.0°C 62.9°F17.2°C 95% 3.0 mph ESE4.8 kmh ESE 8.0 mph12.9 kmh 29.80 in1009.1 mb 0.04 in1.0 mm 0.00 in0.0 mm 0.02 in0.5 mm
01:47 AM 64.4°F18.0°C 62.9°F17.2°C 95% 5.0 mph E8.0 kmh E 8.0 mph12.9 kmh 29.81 in1009.5 mb 0.04 in1.0 mm 0.00 in0.0 mm 0.02 in0.5 mm
01:46 AM 64.4°F18.0°C 62.9°F17.2°C 95% 4.0 mph E6.4 kmh E 8.0 mph12.9 kmh 29.81 in1009.5 mb 0.04 in1.0 mm 0.00 in0.0 mm 0.02 in0.5 mm
01:45 AM 64.4°F18.0°C 62.6°F17.0°C 94% 3.0 mph E4.8 kmh E 11.0 mph17.7 kmh 29.82 in1009.8 mb 0.04 in1.0 mm 0.00 in0.0 mm 0.02 in0.5 mm
01:44 AM 64.4°F18.0°C 62.6°F17.0°C 94% 3.0 mph ENE4.8 kmh ENE 11.0 mph17.7 kmh 29.82 in1009.8 mb 0.04 in1.0 mm 0.00 in0.0 mm 0.02 in0.5 mm
01:43 AM 64.4°F18.0°C 62.6°F17.0°C 94% 3.0 mph E4.8 kmh E 11.0 mph17.7 kmh 29.82 in1009.8 mb 0.04 in1.0 mm 0.00 in0.0 mm 0.02 in0.5 mm
01:42 AM 64.4°F18.0°C 62.6°F17.0°C 94% 3.0 mph ENE4.8 kmh ENE 11.0 mph17.7 kmh 29.82 in1009.8 mb 0.04 in1.0 mm 0.00 in0.0 mm 0.02 in0.5 mm
01:41 AM 64.5°F18.1°C 62.7°F17.1°C 94% 3.0 mph E4.8 kmh E 11.0 mph17.7 kmh 29.82 in1009.8 mb 0.04 in1.0 mm 0.00 in0.0 mm 0.02 in0.5 mm
01:40 AM 64.5°F18.1°C 62.7°F17.1°C 94% 2.0 mph ENE3.2 kmh ENE 11.0 mph17.7 kmh 29.82 in1009.8 mb 0.04 in1.0 mm 0.00 in0.0 mm 0.02 in0.5 mm
01:39 AM 64.5°F18.1°C 62.7°F17.1°C 94% 3.0 mph E4.8 kmh E 11.0 mph17.7 kmh 29.82 in1009.8 mb 0.04 in1.0 mm 0.00 in0.0 mm 0.02 in0.5 mm
01:38 AM 64.5°F18.1°C 62.7°F17.1°C 94% 5.0 mph ENE8.0 kmh ENE 11.0 mph17.7 kmh 29.82 in1009.8 mb 0.04 in1.0 mm 0.00 in0.0 mm 0.02 in0.5 mm
01:37 AM 64.5°F18.1°C 62.7°F17.1°C 94% 5.0 mph E8.0 kmh E 11.0 mph17.7 kmh 29.82 in1009.8 mb 0.04 in1.0 mm 0.00 in0.0 mm 0.02 in0.5 mm
01:36 AM 64.5°F18.1°C 62.7°F17.1°C 94% 5.0 mph ENE8.0 kmh ENE 11.0 mph17.7 kmh 29.82 in1009.8 mb 0.04 in1.0 mm 0.00 in0.0 mm 0.02 in0.5 mm
01:35 AM 64.6°F18.1°C 62.8°F17.1°C 94% 5.0 mph NE8.0 kmh NE 9.0 mph14.5 kmh 29.83 in1010.2 mb 0.04 in1.0 mm 0.00 in0.0 mm 0.02 in0.5 mm
01:34 AM 64.6°F18.1°C 62.8°F17.1°C 94% 7.0 mph E11.3 kmh E 9.0 mph14.5 kmh 29.84 in1010.5 mb 0.04 in1.0 mm 0.00 in0.0 mm 0.02 in0.5 mm
01:33 AM 64.6°F18.1°C 62.8°F17.1°C 94% 7.0 mph E11.3 kmh E 9.0 mph14.5 kmh 29.84 in1010.5 mb 0.04 in1.0 mm 2.40 in61.0 mm 0.02 in0.5 mm
01:32 AM 64.6°F18.1°C 62.8°F17.1°C 94% 5.0 mph NE8.0 kmh NE 9.0 mph14.5 kmh 29.86 in1011.2 mb 0.00 in0.0 mm 0.00 in0.0 mm 0.01 in0.3 mm
01:31 AM 64.6°F18.1°C 62.8°F17.1°C 94% 6.0 mph NNE9.7 kmh NNE 8.0 mph12.9 kmh 29.87 in1011.5 mb 0.00 in0.0 mm 0.00 in0.0 mm 0.01 in0.3 mm
01:30 AM 64.6°F18.1°C 62.8°F17.1°C 94% 4.0 mph NE6.4 kmh NE 6.0 mph9.7 kmh 29.88 in1011.9 mb 0.00 in0.0 mm 0.00 in0.0 mm 0.01 in0.3 mm
01:29 AM 64.6°F18.1°C 62.8°F17.1°C 94% 3.0 mph NE4.8 kmh NE 6.0 mph9.7 kmh 29.89 in1012.2 mb 0.00 in0.0 mm 0.00 in0.0 mm 0.01 in0.3 mm
01:28 AM 64.6°F18.1°C 62.8°F17.1°C 94% 4.0 mph NNE6.4 kmh NNE 4.0 mph6.4 kmh 29.90 in1012.5 mb 0.00 in0.0 mm 0.00 in0.0 mm 0.01 in0.3 mm
01:27 AM 64.6°F18.1°C 62.8°F17.1°C 94% 2.0 mph NE3.2 kmh NE 4.0 mph6.4 kmh 29.90 in1012.5 mb 0.00 in0.0 mm 0.00 in0.0 mm 0.01 in0.3 mm
01:26 AM 64.7°F18.2°C 62.9°F17.2°C 94% 1.0 mph ENE1.6 kmh ENE 4.0 mph6.4 kmh 29.91 in1012.9 mb 0.00 in0.0 mm 0.00 in0.0 mm 0.01 in0.3 mm
01:25 AM 64.7°F18.2°C 62.9°F17.2°C 94% Calm Calm 4.0 mph6.4 kmh 29.91 in1012.9 mb 0.00 in0.0 mm 0.00 in0.0 mm 0.01 in0.3 mm
01:24 AM 64.7°F18.2°C 62.9°F17.2°C 94% 1.0 mph ENE1.6 kmh ENE 4.0 mph6.4 kmh 29.91 in1012.9 mb 0.00 in0.0 mm 0.00 in0.0 mm 0.01 in0.3 mm
01:23 AM 64.7°F18.2°C 62.9°F17.2°C 94% 1.0 mph ENE1.6 kmh ENE 4.0 mph6.4 kmh 29.91 in1012.9 mb 0.00 in0.0 mm 0.00 in0.0 mm 0.01 in0.3 mm
01:22 AM 64.6°F18.1°C 62.8°F17.1°C 94% 1.0 mph ENE1.6 kmh ENE 4.0 mph6.4 kmh 29.91 in1012.9 mb 0.00 in0.0 mm 0.00 in0.0 mm 0.01 in0.3 mm
01:21 AM 64.6°F18.1°C 62.8°F17.1°C 94% 1.0 mph ENE1.6 kmh ENE 4.0 mph6.4 kmh 29.91 in1012.9 mb 0.00 in0.0 mm 0.00 in0.0 mm 0.01 in0.3 mm
01:20 AM 64.6°F18.1°C 62.8°F17.1°C 94% 2.0 mph ENE3.2 kmh ENE 4.0 mph6.4 kmh 29.91 in1012.9 mb 0.00 in0.0 mm 0.00 in0.0 mm 0.01 in0.3 mm
01:19 AM 64.6°F18.1°C 62.8°F17.1°C 94% 3.0 mph ENE4.8 kmh ENE 4.0 mph6.4 kmh 29.91 in1012.9 mb 0.00 in0.0 mm 0.00 in0.0 mm 0.01 in0.3 mm
01:18 AM 64.6°F18.1°C 62.8°F17.1°C 94% 2.0 mph ENE3.2 kmh ENE 3.0 mph4.8 kmh 29.92 in1013.2 mb 0.00 in0.0 mm 0.00 in0.0 mm 0.04 in1.0 mm
01:17 AM 64.6°F18.1°C 62.8°F17.1°C 94% 2.0 mph ESE3.2 kmh ESE 3.0 mph4.8 kmh 29.92 in1013.2 mb 0.00 in0.0 mm 0.00 in0.0 mm 0.04 in1.0 mm
01:16 AM 64.6°F18.1°C 62.8°F17.1°C 94% 2.0 mph ESE3.2 kmh ESE 3.0 mph4.8 kmh 29.93 in1013.5 mb 0.00 in0.0 mm 0.00 in0.0 mm 0.04 in1.0 mm
01:15 AM 64.7°F18.2°C 62.9°F17.2°C 94% 1.0 mph ESE1.6 kmh ESE 4.0 mph6.4 kmh 29.93 in1013.5 mb 0.00 in0.0 mm 0.00 in0.0 mm 0.04 in1.0 mm
01:14 AM 64.7°F18.2°C 62.9°F17.2°C 94% 1.0 mph ESE1.6 kmh ESE 4.0 mph6.4 kmh 29.93 in1013.5 mb 0.00 in0.0 mm 0.00 in0.0 mm 0.04 in1.0 mm
01:13 AM 64.7°F18.2°C 62.9°F17.2°C 94% 2.0 mph ESE3.2 kmh ESE 4.0 mph6.4 kmh 29.94 in1013.9 mb 0.00 in0.0 mm 0.00 in0.0 mm 0.04 in1.0 mm
01:12 AM 64.7°F18.2°C 62.9°F17.2°C 94% 1.0 mph SE1.6 kmh SE 4.0 mph6.4 kmh 29.94 in1013.9 mb 0.00 in0.0 mm 0.00 in0.0 mm 0.04 in1.0 mm
01:11 AM 64.7°F18.2°C 62.9°F17.2°C 94% 3.0 mph SE4.8 kmh SE 4.0 mph6.4 kmh 29.94 in1013.9 mb 0.00 in0.0 mm 0.00 in0.0 mm 0.04 in1.0 mm
01:10 AM 64.7°F18.2°C 62.9°F17.2°C 94% 1.0 mph SSE1.6 kmh SSE 4.0 mph6.4 kmh 29.94 in1013.9 mb 0.00 in0.0 mm 0.00 in0.0 mm 0.04 in1.0 mm
01:09 AM 64.8°F18.2°C 63.0°F17.2°C 94% 1.0 mph SSE1.6 kmh SSE 4.0 mph6.4 kmh 29.94 in1013.9 mb 0.00 in0.0 mm 0.00 in0.0 mm 0.04 in1.0 mm
01:08 AM 64.8°F18.2°C 63.0°F17.2°C 94% Calm Calm 4.0 mph6.4 kmh 29.95 in1014.2 mb 0.00 in0.0 mm 0.00 in0.0 mm 0.04 in1.0 mm
01:07 AM 64.9°F18.3°C 63.1°F17.3°C 94% 1.0 mph SSE1.6 kmh SSE 4.0 mph6.4 kmh 29.95 in1014.2 mb 0.00 in0.0 mm 0.00 in0.0 mm 0.04 in1.0 mm
01:06 AM 64.9°F18.3°C 63.1°F17.3°C 94% Calm Calm 4.0 mph6.4 kmh 29.95 in1014.2 mb 0.00 in0.0 mm 0.00 in0.0 mm 0.04 in1.0 mm
01:05 AM 64.9°F18.3°C 63.1°F17.3°C 94% 4.0 mph SSE6.4 kmh SSE 4.0 mph6.4 kmh 29.95 in1014.2 mb 0.00 in0.0 mm 0.00 in0.0 mm 0.04 in1.0 mm
01:04 AM 65.0°F18.3°C 63.2°F17.3°C 94% 1.0 mph SE1.6 kmh SE 4.0 mph6.4 kmh 29.95 in1014.2 mb 0.00 in0.0 mm 0.00 in0.0 mm 0.04 in1.0 mm
01:03 AM 65.0°F18.3°C 63.2°F17.3°C 94% 2.0 mph SE3.2 kmh SE 4.0 mph6.4 kmh 29.95 in1014.2 mb 0.00 in0.0 mm 0.00 in0.0 mm 0.04 in1.0 mm
01:02 AM 65.1°F18.4°C 63.3°F17.4°C 94% 1.0 mph ESE1.6 kmh ESE 5.0 mph8.0 kmh 29.95 in1014.2 mb 0.00 in0.0 mm 0.00 in0.0 mm 0.04 in1.0 mm
01:01 AM 65.2°F18.4°C 63.4°F17.4°C 94% Calm Calm 5.0 mph8.0 kmh 29.95 in1014.2 mb 0.00 in0.0 mm 0.00 in0.0 mm 0.04 in1.0 mm
01:00 AM 65.2°F18.4°C 63.4°F17.4°C 94% 1.0 mph NE1.6 kmh NE 5.0 mph8.0 kmh 29.95 in1014.2 mb 0.00 in0.0 mm 0.00 in0.0 mm 0.04 in1.0 mm
12:59 AM 65.3°F18.5°C 63.5°F17.5°C 94% 1.0 mph NE1.6 kmh NE 5.0 mph8.0 kmh 29.91 in1012.9 mb 0.00 in0.0 mm 0.00 in0.0 mm 0.04 in1.0 mm
12:58 AM 65.3°F18.5°C 63.5°F17.5°C 94% 2.0 mph NE3.2 kmh NE 5.0 mph8.0 kmh 29.91 in1012.9 mb 0.00 in0.0 mm 0.00 in0.0 mm 0.04 in1.0 mm
12:57 AM 65.3°F18.5°C 63.5°F17.5°C 94% 3.0 mph NE4.8 kmh NE 5.0 mph8.0 kmh 29.91 in1012.9 mb 0.00 in0.0 mm 0.00 in0.0 mm 0.04 in1.0 mm
12:56 AM 65.2°F18.4°C 63.4°F17.4°C 94% 4.0 mph NE6.4 kmh NE 5.0 mph8.0 kmh 29.92 in1013.2 mb 0.00 in0.0 mm 0.00 in0.0 mm 0.04 in1.0 mm
12:55 AM 65.2°F18.4°C 63.4°F17.4°C 94% 1.0 mph NW1.6 kmh NW 5.0 mph8.0 kmh 29.93 in1013.5 mb 0.00 in0.0 mm 0.00 in0.0 mm 0.04 in1.0 mm
12:54 AM 65.2°F18.4°C 63.4°F17.4°C 94% Calm Calm 5.0 mph8.0 kmh 29.93 in1013.5 mb 0.00 in0.0 mm 0.00 in0.0 mm 0.04 in1.0 mm
12:53 AM 65.3°F18.5°C 63.5°F17.5°C 94% 1.0 mph WSW1.6 kmh WSW 5.0 mph8.0 kmh 29.94 in1013.9 mb 0.00 in0.0 mm 0.00 in0.0 mm 0.04 in1.0 mm
12:52 AM 65.3°F18.5°C 63.5°F17.5°C 94% 1.0 mph S1.6 kmh S 5.0 mph8.0 kmh 29.94 in1013.9 mb 0.00 in0.0 mm 0.00 in0.0 mm 0.04 in1.0 mm
12:51 AM 65.3°F18.5°C 63.5°F17.5°C 94% 1.0 mph S1.6 kmh S 5.0 mph8.0 kmh 29.94 in1013.9 mb 0.00 in0.0 mm 0.00 in0.0 mm 0.04 in1.0 mm
12:50 AM 65.2°F18.4°C 63.4°F17.4°C 94% 2.0 mph SSE3.2 kmh SSE 5.0 mph8.0 kmh 29.94 in1013.9 mb 0.00 in0.0 mm 0.00 in0.0 mm 0.04 in1.0 mm
12:49 AM 65.2°F18.4°C 63.4°F17.4°C 94% 4.0 mph S6.4 kmh S 5.0 mph8.0 kmh 29.94 in1013.9 mb 0.00 in0.0 mm 0.00 in0.0 mm 0.04 in1.0 mm
12:48 AM 65.2°F18.4°C 63.4°F17.4°C 94% 3.0 mph S4.8 kmh S 5.0 mph8.0 kmh 29.95 in1014.2 mb 0.00 in0.0 mm 0.00 in0.0 mm 0.04 in1.0 mm
12:47 AM 65.2°F18.4°C 63.4°F17.4°C 94% 1.0 mph S1.6 kmh S 5.0 mph8.0 kmh 29.94 in1013.9 mb 0.00 in0.0 mm 0.00 in0.0 mm 0.04 in1.0 mm
12:46 AM 65.2°F18.4°C 63.4°F17.4°C 94% 3.0 mph SW4.8 kmh SW 5.0 mph8.0 kmh 29.94 in1013.9 mb 0.00 in0.0 mm 0.00 in0.0 mm 0.04 in1.0 mm
12:45 AM 65.2°F18.4°C 63.4°F17.4°C 94% 2.0 mph S3.2 kmh S 5.0 mph8.0 kmh 29.94 in1013.9 mb 0.00 in0.0 mm 0.00 in0.0 mm 0.04 in1.0 mm
12:44 AM 65.2°F18.4°C 63.4°F17.4°C 94% 1.0 mph S1.6 kmh S 5.0 mph8.0 kmh 29.94 in1013.9 mb 0.00 in0.0 mm 0.00 in0.0 mm 0.04 in1.0 mm
12:43 AM 65.3°F18.5°C 63.5°F17.5°C 94% 1.0 mph S1.6 kmh S 5.0 mph8.0 kmh 29.94 in1013.9 mb 0.00 in0.0 mm 0.00 in0.0 mm 0.04 in1.0 mm
12:42 AM 65.3°F18.5°C 63.5°F17.5°C 94% 1.0 mph S1.6 kmh S 5.0 mph8.0 kmh 29.93 in1013.5 mb 0.00 in0.0 mm 0.00 in0.0 mm 0.04 in1.0 mm
12:41 AM 65.3°F18.5°C 63.5°F17.5°C 94% 3.0 mph S4.8 kmh S 4.0 mph6.4 kmh 29.93 in1013.5 mb 0.00 in0.0 mm 0.00 in0.0 mm 0.04 in1.0 mm
12:40 AM 65.3°F18.5°C 63.5°F17.5°C 94% 1.0 mph S1.6 kmh S 4.0 mph6.4 kmh 29.93 in1013.5 mb 0.00 in0.0 mm 0.00 in0.0 mm 0.04 in1.0 mm
12:39 AM 65.3°F18.5°C 63.5°F17.5°C 94% 2.0 mph S3.2 kmh S 4.0 mph6.4 kmh 29.96 in1014.6 mb 0.00 in0.0 mm 0.00 in0.0 mm 0.04 in1.0 mm
12:38 AM 65.3°F18.5°C 63.5°F17.5°C 94% 2.0 mph S3.2 kmh S 6.0 mph9.7 kmh 29.96 in1014.6 mb 0.00 in0.0 mm 0.00 in0.0 mm 0.04 in1.0 mm
12:37 AM 65.3°F18.5°C 63.5°F17.5°C 94% 2.0 mph S3.2 kmh S 6.0 mph9.7 kmh 29.95 in1014.2 mb 0.00 in0.0 mm 0.00 in0.0 mm 0.04 in1.0 mm
12:36 AM 65.3°F18.5°C 63.5°F17.5°C 94% 1.0 mph E1.6 kmh E 6.0 mph9.7 kmh 29.95 in1014.2 mb 0.00 in0.0 mm 0.00 in0.0 mm 0.04 in1.0 mm
12:35 AM 65.3°F18.5°C 63.5°F17.5°C 94% 1.0 mph NE1.6 kmh NE 6.0 mph9.7 kmh 29.94 in1013.9 mb 0.00 in0.0 mm 0.00 in0.0 mm 0.04 in1.0 mm
12:34 AM 65.3°F18.5°C 63.5°F17.5°C 94% Calm Calm 6.0 mph9.7 kmh 29.94 in1013.9 mb 0.00 in0.0 mm 0.00 in0.0 mm 0.04 in1.0 mm
12:33 AM 65.3°F18.5°C 63.5°F17.5°C 94% 2.0 mph NE3.2 kmh NE 6.0 mph9.7 kmh 29.93 in1013.5 mb 0.00 in0.0 mm 0.00 in0.0 mm 0.04 in1.0 mm
12:32 AM 65.3°F18.5°C 63.5°F17.5°C 94% Calm Calm 7.0 mph11.3 kmh 29.93 in1013.5 mb 0.00 in0.0 mm 0.00 in0.0 mm 0.04 in1.0 mm
12:31 AM 65.3°F18.5°C 63.5°F17.5°C 94% 2.0 mph NE3.2 kmh NE 9.0 mph14.5 kmh 29.93 in1013.5 mb 0.00 in0.0 mm 0.00 in0.0 mm 0.04 in1.0 mm
12:30 AM 65.3°F18.5°C 63.5°F17.5°C 94% 1.0 mph NE1.6 kmh NE 10.0 mph16.1 kmh 29.92 in1013.2 mb 0.00 in0.0 mm 0.00 in0.0 mm 0.04 in1.0 mm
12:29 AM 65.3°F18.5°C 63.5°F17.5°C 94% 4.0 mph NNE6.4 kmh NNE 10.0 mph16.1 kmh 29.92 in1013.2 mb 0.00 in0.0 mm 0.00 in0.0 mm 0.04 in1.0 mm
12:28 AM 65.3°F18.5°C 63.5°F17.5°C 94% 5.0 mph NE8.0 kmh NE 10.0 mph16.1 kmh 29.92 in1013.2 mb 0.00 in0.0 mm 0.00 in0.0 mm 0.04 in1.0 mm
12:27 AM 65.2°F18.4°C 63.4°F17.4°C 94% 4.0 mph ENE6.4 kmh ENE 10.0 mph16.1 kmh 29.92 in1013.2 mb 0.00 in0.0 mm 0.00 in0.0 mm 0.04 in1.0 mm
12:26 AM 65.2°F18.4°C 63.4°F17.4°C 94% 2.0 mph ENE3.2 kmh ENE 10.0 mph16.1 kmh 29.92 in1013.2 mb 0.00 in0.0 mm 0.00 in0.0 mm 0.04 in1.0 mm
12:25 AM 65.3°F18.5°C 63.2°F17.3°C 93% 1.0 mph ENE1.6 kmh ENE 10.0 mph16.1 kmh 29.92 in1013.2 mb 0.00 in0.0 mm 0.00 in0.0 mm 0.04 in1.0 mm
12:24 AM 65.3°F18.5°C 63.5°F17.5°C 94% 1.0 mph NE1.6 kmh NE 10.0 mph16.1 kmh 29.92 in1013.2 mb 0.00 in0.0 mm 0.00 in0.0 mm 0.04 in1.0 mm
12:23 AM 65.3°F18.5°C 63.5°F17.5°C 94% 1.0 mph NE1.6 kmh NE 10.0 mph16.1 kmh 29.92 in1013.2 mb 0.00 in0.0 mm 0.00 in0.0 mm 0.04 in1.0 mm
12:22 AM 65.3°F18.5°C 63.5°F17.5°C 94% 3.0 mph ENE4.8 kmh ENE 10.0 mph16.1 kmh 29.92 in1013.2 mb 0.00 in0.0 mm 0.00 in0.0 mm 0.04 in1.0 mm
12:21 AM 65.3°F18.5°C 63.2°F17.3°C 93% 2.0 mph ENE3.2 kmh ENE 10.0 mph16.1 kmh 29.91 in1012.9 mb 0.00 in0.0 mm 0.00 in0.0 mm 0.04 in1.0 mm
12:20 AM 65.3°F18.5°C 63.2°F17.3°C 93% 3.0 mph ENE4.8 kmh ENE 9.0 mph14.5 kmh 29.91 in1012.9 mb 0.00 in0.0 mm 0.00 in0.0 mm 0.04 in1.0 mm
12:19 AM 65.4°F18.6°C 63.3°F17.4°C 93% 9.0 mph NE14.5 kmh NE 9.0 mph14.5 kmh 29.93 in1013.5 mb 0.00 in0.0 mm 0.00 in0.0 mm 0.04 in1.0 mm
12:18 AM 65.4°F18.6°C 63.3°F17.4°C 93% 4.0 mph NE6.4 kmh NE 9.0 mph14.5 kmh 29.93 in1013.5 mb 0.00 in0.0 mm 0.00 in0.0 mm 0.04 in1.0 mm
12:17 AM 65.3°F18.5°C 63.2°F17.3°C 93% 3.0 mph NE4.8 kmh NE 9.0 mph14.5 kmh 29.93 in1013.5 mb 0.00 in0.0 mm 0.00 in0.0 mm 0.04 in1.0 mm
12:16 AM 65.3°F18.5°C 63.2°F17.3°C 93% 6.0 mph NE9.7 kmh NE 9.0 mph14.5 kmh 29.93 in1013.5 mb 0.00 in0.0 mm 0.00 in0.0 mm 0.04 in1.0 mm
12:15 AM 65.3°F18.5°C 63.2°F17.3°C 93% 3.0 mph NNE4.8 kmh NNE 9.0 mph14.5 kmh 29.94 in1013.9 mb 0.00 in0.0 mm 0.00 in0.0 mm 0.04 in1.0 mm
12:14 AM 65.3°F18.5°C 63.2°F17.3°C 93% 5.0 mph NE8.0 kmh NE 9.0 mph14.5 kmh 29.94 in1013.9 mb 0.00 in0.0 mm 0.00 in0.0 mm 0.04 in1.0 mm
12:13 AM 65.4°F18.6°C 63.3°F17.4°C 93% 2.0 mph NE3.2 kmh NE 9.0 mph14.5 kmh 29.94 in1013.9 mb 0.00 in0.0 mm 0.00 in0.0 mm 0.04 in1.0 mm
12:12 AM 65.4°F18.6°C 63.3°F17.4°C 93% 2.0 mph NE3.2 kmh NE 9.0 mph14.5 kmh 29.94 in1013.9 mb 0.00 in0.0 mm 0.00 in0.0 mm 0.04 in1.0 mm
12:11 AM 65.4°F18.6°C 63.3°F17.4°C 93% 2.0 mph NE3.2 kmh NE 9.0 mph14.5 kmh 29.94 in1013.9 mb 0.00 in0.0 mm 0.00 in0.0 mm 0.04 in1.0 mm
12:10 AM 65.4°F18.6°C 63.3°F17.4°C 93% 7.0 mph NE11.3 kmh NE 9.0 mph14.5 kmh 29.94 in1013.9 mb 0.00 in0.0 mm 0.00 in0.0 mm 0.04 in1.0 mm
12:09 AM 65.4°F18.6°C 63.3°F17.4°C 93% 4.0 mph NNE6.4 kmh NNE 9.0 mph14.5 kmh 29.94 in1013.9 mb 0.00 in0.0 mm 0.00 in0.0 mm 0.04 in1.0 mm
12:08 AM 65.4°F18.6°C 63.3°F17.4°C 93% 4.0 mph NE6.4 kmh NE 9.0 mph14.5 kmh 29.94 in1013.9 mb 0.00 in0.0 mm 0.00 in0.0 mm 0.04 in1.0 mm
12:07 AM 65.4°F18.6°C 63.3°F17.4°C 93% 4.0 mph NE6.4 kmh NE 6.0 mph9.7 kmh 29.95 in1014.2 mb 0.00 in0.0 mm 0.00 in0.0 mm 0.04 in1.0 mm
12:06 AM 65.4°F18.6°C 63.3°F17.4°C 93% 3.0 mph NE4.8 kmh NE 6.0 mph9.7 kmh 29.95 in1014.2 mb 0.00 in0.0 mm 0.00 in0.0 mm 0.04 in1.0 mm
12:05 AM 65.4°F18.6°C 63.3°F17.4°C 93% 4.0 mph NE6.4 kmh NE 6.0 mph9.7 kmh 29.95 in1014.2 mb 0.00 in0.0 mm 0.00 in0.0 mm 0.04 in1.0 mm
12:04 AM 65.4°F18.6°C 63.0°F17.2°C 92% 3.0 mph NE4.8 kmh NE 6.0 mph9.7 kmh 29.95 in1014.2 mb 0.00 in0.0 mm 0.00 in0.0 mm 0.04 in1.0 mm
12:03 AM 65.5°F18.6°C 63.1°F17.3°C 92% 2.0 mph NE3.2 kmh NE 6.0 mph9.7 kmh 29.96 in1014.6 mb 0.00 in0.0 mm 0.00 in0.0 mm 0.04 in1.0 mm
12:02 AM 65.6°F18.7°C 63.2°F17.3°C 92% 2.0 mph ENE3.2 kmh ENE 6.0 mph9.7 kmh 29.96 in1014.6 mb 0.00 in0.0 mm 0.00 in0.0 mm 0.04 in1.0 mm
12:01 AM 65.7°F18.7°C 63.3°F17.4°C 92% 5.0 mph NE8.0 kmh NE 5.0 mph8.0 kmh 29.96 in1014.6 mb 0.04 in1.0 mm 0.00 in0.0 mm 0.04 in1.0 mm
12:00 AM 65.7°F18.7°C 63.6°F17.6°C 93% 3.0 mph NE4.8 kmh NE 5.0 mph8.0 kmh 29.96 in1014.6 mb 0.04 in1.0 mm 0.00 in0.0 mm 0.04 in1.0 mm